Data for 09/21/2010

Time Sea-Level Adjusted Pressure Absolute Pressure Temperature Relative Humidity Dew Point Precipitation   
(mb) (inHg) (mb) (inHg) (C) (F) (%) (C) (F) (mm) (in)
00:01 1016 30 845 24.95 7.6 45.6 77 3.8 38.9 7.89 0.311
00:02 1016 30 845 24.95 7.5 45.5 78 3.9 39 7.8 0.307
00:03 1016 30 845 24.95 7.4 45.3 80 4.2 39.5 7.75 0.305
00:04 1016 30 845 24.95 7.1 44.9 81 4.1 39.4 7.52 0.296
00:05 1016 30 845 24.95 6.9 44.5 82 4.1 39.4 7.35 0.289
00:06 1016 30 845 24.95 6.8 44.2 83 4.1 39.4 7.19 0.283
00:07 1016 30 845 24.95 6.7 44 84 4.1 39.3 7.07 0.278
00:08 1016 30 845 24.95 6.5 43.7 84 4.1 39.3 6.957 0.274
00:09 1016 30 845 24.95 6.5 43.6 85 4 39.3 6.85 0.27
00:10 1016 30 845 24.95 6.4 43.5 85 4 39.2 6.776 0.267
00:11 1016 30 845 24.95 6.3 43.3 85 4 39.2 6.703 0.264
00:12 1016 30 845 24.95 6.3 43.3 85 3.9 39.1 6.697 0.264
00:13 1016 30 845 24.95 6.3 43.4 84 3.9 39 6.703 0.264
00:14 1016 30 845 24.95 6.3 43.4 84 3.9 39 6.726 0.265
00:15 1016 30 845 24.95 6.3 43.4 84 3.8 38.9 6.704 0.264
00:16 1016 30 845 24.95 6.3 43.3 84 3.8 38.8 6.709 0.264
00:17 1016 30 845 24.95 6.3 43.3 84 3.7 38.7 6.687 0.263
00:18 1016 30 845 24.95 6.3 43.3 84 3.7 38.7 6.647 0.262
00:19 1016 30 845 24.95 6.3 43.3 83 3.7 38.6 6.653 0.262
00:20 1016 30 845 24.95 6.2 43.2 84 3.7 38.6 6.636 0.261
00:21 1016 30 845 24.95 6.2 43.1 84 3.7 38.6 6.568 0.259
00:22 1016 30 845 24.95 6.2 43.1 84 3.6 38.6 6.563 0.258
00:23 1016 30 845 24.95 6.2 43.1 83 3.6 38.4 6.546 0.258
00:24 1016 30 845 24.95 6.2 43.1 83 3.6 38.5 6.563 0.258
00:25 1016 30 845 24.95 6.1 43.1 84 3.6 38.5 6.501 0.256
00:26 1016 30 845 24.95 6.1 43 84 3.6 38.5 6.489 0.255
00:27 1016 30 845 24.95 6.1 43 84 3.6 38.5 6.49 0.256
00:28 1016 30 845 24.95 6.1 43 84 3.5 38.4 6.495 0.256
00:29 1016 30 845 24.95 6.1 43.1 83 3.5 38.4 6.495 0.256
00:30 1016 30 845 24.95 6.2 43.1 83 3.4 38.2 6.535 0.257
00:31 1016 30 845 24.95 6.2 43.2 82 3.4 38.1 6.58 0.259
00:32 1016 30 845 24.95 6.2 43.2 82 3.4 38.2 6.575 0.259
00:33 1016 30 845 24.95 6.1 43 82 3.4 38.1 6.529 0.257
00:34 1016 30 845 24.95 6.1 43 83 3.4 38.1 6.456 0.254
00:35 1016 30 845 24.95 6 42.9 83 3.4 38.1 6.36 0.25
00:36 1016 30 845 24.95 5.9 42.7 83 3.3 37.9 6.337 0.249
00:37 1016 30 845 24.95 5.8 42.5 84 3.3 37.9 6.224 0.245
00:38 1016 30 845 24.95 5.7 42.3 84 3.3 37.9 6.168 0.243
00:39 1016 30 845 24.95 5.8 42.4 84 3.3 37.9 6.135 0.242
00:40 1016 30 845 24.95 5.8 42.5 84 3.3 37.9 6.186 0.244
00:41 1016 30 845 24.95 5.8 42.5 83 3.3 37.9 6.209 0.244
00:42 1016 30 845 24.95 5.9 42.5 83 3.2 37.8 6.238 0.246
00:43 1016 30 845 24.95 5.8 42.4 83 3.1 37.5 6.17 0.243
00:44 1016 30 845 24.95 5.7 42.3 82 3 37.4 6.154 0.242
00:45 1016 30 845 24.95 5.9 42.6 82 3 37.4 6.234 0.245
00:46 1016 30 845 24.95 6.1 42.9 80 3 37.3 6.375 0.251
00:47 1016 30 845 24.95 6.2 43.2 80 3 37.3 6.517 0.257
00:48 1016 30 845 24.95 6.4 43.5 78 2.9 37.2 6.71 0.264
00:49 1016 30 845 24.95 6.6 44 77 2.9 37.2 6.936 0.273
00:50 1016 30 845 24.95 6.9 44.5 75 2.9 37.2 7.2 0.283
00:51 1016 30 845 24.95 7.1 44.8 75 3 37.4 7.37 0.29
00:52 1016 30 845 24.95 6.9 44.5 77 3.1 37.6 7.33 0.289
00:53 1016 30 845 24.95 6.6 43.8 78 3 37.5 7.06 0.278
00:54 1016 30 845 24.95 6.2 43.2 80 3 37.4 6.694 0.264
00:55 1016 30 845 24.95 6.2 43.2 80 3.1 37.5 6.654 0.262
00:56 1016 30 845 24.95 6.2 43.2 80 3.1 37.5 6.626 0.261
00:57 1016 30 845 24.95 6.3 43.4 80 3.1 37.6 6.689 0.263
00:58 1016 30 845 24.95 6.5 43.7 79 3.2 37.7 6.813 0.268
00:59 1016 30 845 24.95 6.5 43.8 79 3.2 37.7 6.853 0.27
01:00 1016 30 845 24.95 6.5 43.7 79 3.1 37.7 6.91 0.272
01:01 1016 30 845 24.95 6.5 43.7 79 3.1 37.6 6.859 0.27
01:02 1016 30 845 24.95 6.5 43.7 79 3.1 37.7 6.865 0.27
01:03 1016 30 845 24.95 6.5 43.6 79 3.1 37.6 6.825 0.269
01:04 1016 30 845 24.95 6.4 43.6 79 3.1 37.6 6.774 0.267
01:05 1016 30 845 24.95 6.2 43.2 80 3.1 37.5 6.616 0.26
01:06 1016 30 845 24.95 6.1 43.1 81 3.1 37.6 6.503 0.256
01:07 1016 30 845 24.95 6.1 43 81 3.1 37.6 6.48 0.255
01:08 1016 30 845 24.95 6.1 43.1 81 3.1 37.6 6.514 0.256
01:09 1016 30 845 24.95 6.2 43.1 80 3 37.4 6.56 0.258
01:10 1016 30 845 24.95 6.3 43.3 80 3.1 37.5 6.644 0.262
01:11 1016 30 845 24.95 6.4 43.4 79 3 37.4 6.763 0.266
01:12 1016 30 845 24.95 6.5 43.7 79 3.1 37.6 6.888 0.271
01:13 1016 30 845 24.95 6.6 43.8 79 3.2 37.7 6.905 0.272
01:14 1016 30 845 24.95 6.6 43.9 79 3.2 37.7 6.984 0.275
01:15 1016 30 845 24.95 6.7 44 78 3.2 37.7 7.04 0.277
01:16 1016 30 845 24.95 6.8 44.3 78 3.2 37.7 7.17 0.282
01:17 1016 30 845 24.95 7 44.5 77 3.3 37.9 7.29 0.287
01:18 1016 30 845 24.95 7 44.6 77 3.3 38 7.32 0.288
01:19 1016 30 845 24.95 7 44.6 78 3.4 38 7.31 0.288
01:20 1016 30 845 24.95 6.9 44.4 78 3.3 38 7.29 0.287
01:21 1016 30 845 24.95 6.8 44.2 79 3.3 38 7.2 0.283
01:22 1016 30 845 24.95 6.7 44 79 3.3 38 7.06 0.278
01:23 1016 30 845 24.95 6.6 43.8 80 3.3 38 6.99 0.275
01:24 1016 30 845 24.95 6.6 43.9 79 3.3 37.9 6.967 0.274
01:25 1016 30 845 24.95 6.6 43.9 80 3.3 38 6.996 0.275
01:26 1016 30 845 24.95 6.5 43.8 80 3.3 38 6.939 0.273
01:27 1016 30 845 24.95 6.5 43.7 80 3.2 37.8 6.871 0.271
01:28 1016 30 845 24.95 6.5 43.7 80 3.2 37.8 6.803 0.268
01:29 1016 30 845 24.95 6.5 43.6 79 3.2 37.7 6.781 0.267
01:30 1016 30 845 24.95 6.4 43.5 80 3.2 37.7 6.685 0.263
01:31 1016 30 845 24.95 6.2 43.1 81 3.1 37.6 6.538 0.257
01:32 1016 30 845 24.95 6 42.8 82 3.1 37.6 6.356 0.25
01:33 1016 30 845 24.95 5.7 42.3 83 3.1 37.5 6.125 0.241
01:34 1016 30 845 24.95 5.5 41.9 84 3 37.4 5.904 0.232
01:35 1016 30 845 24.95 5.3 41.5 85 2.9 37.3 5.717 0.225
01:36 1016 30 845 24.95 5.1 41.2 86 2.9 37.2 5.497 0.216
01:37 1016 30 845 24.95 4.8 40.7 86 2.7 36.9 5.321 0.209
01:38 1016 30 845 24.95 4.6 40.3 87 2.7 36.9 5.123 0.202
01:39 1016 30 845 24.95 4.5 40.1 88 2.7 36.8 4.987 0.196
01:40 1016 30 845 24.95 4.4 39.9 89 2.7 36.9 4.84 0.191
01:41 1016 30 845 24.95 4.3 39.7 89 2.7 36.9 4.756 0.187
01:42 1016 30 845 24.95 4.3 39.7 89 2.7 36.9 4.767 0.188
01:43 1016 30 845 24.95 4.4 39.9 89 2.8 37 4.84 0.191
01:44 1016 30 845 24.95 4.4 40 89 2.8 37 4.863 0.191
01:45 1016 30 845 24.95 4.6 40.2 89 2.8 37.1 4.971 0.196
01:46 1016 30 845 24.95 4.8 40.6 87 2.8 37.1 5.157 0.203
01:47 1016 30 845 24.95 4.9 40.8 87 2.8 37.1 5.225 0.206
01:48 1016 30 845 24.95 4.9 40.8 86 2.8 37 5.282 0.208
01:49 1016 30 845 24.95 4.8 40.7 86 2.7 36.9 5.208 0.205
01:50 1016 30 845 24.95 4.8 40.6 87 2.7 36.9 5.129 0.202
01:51 1016 30 845 24.95 4.7 40.5 87 2.7 36.8 5.112 0.201
01:52 1016 30 845 24.95 4.7 40.4 87 2.7 36.8 5.067 0.199
01:53 1016 30 845 24.95 4.6 40.3 87 2.6 36.7 5.021 0.198
01:54 1016 30 845 24.95 4.6 40.2 87 2.6 36.7 4.959 0.195
01:55 1016 30 845 24.95 4.5 40.1 87 2.6 36.6 4.886 0.192
01:56 1016 30 845 24.95 4.4 40 87 2.5 36.6 4.829 0.19
01:57 1016 30 845 24.95 4.4 39.9 88 2.5 36.5 4.727 0.186
01:58 1016 30 845 24.95 4.3 39.7 87 2.4 36.3 4.637 0.183
01:59 1016 30 845 24.95 4.2 39.5 88 2.4 36.4 4.558 0.179
02:00 1016 30 845 24.95 4.1 39.4 89 2.4 36.4 4.501 0.177
02:01 1016 30 845 24.95 4.1 39.4 88 2.4 36.3 4.512 0.178
02:02 1016 30 845 24.95 4.2 39.5 90 2.7 36.8 4.512 0.178
02:03 1016 30 845 24.95 4.3 39.8 89 2.6 36.7 4.705 0.185
02:04 1016 30 845 24.95 4.5 40 88 2.6 36.6 4.812 0.189
02:05 1016 30 845 24.95 4.5 40.1 87 2.6 36.6 4.801 0.189
02:06 1016 30 845 24.95 4.4 40 87 2.4 36.4 4.75 0.187
02:07 1016 30 845 24.95 4.4 39.8 87 2.4 36.3 4.665 0.184
02:08 1016 30 845 24.95 4.3 39.7 88 2.5 36.5 4.575 0.18
02:09 1016 30 845 24.95 4.3 39.7 88 2.4 36.3 4.58 0.18
02:10 1016 30 845 24.95 4.2 39.5 89 2.5 36.4 4.524 0.178
02:11 1016 30 845 24.95 4.2 39.6 90 2.7 36.9 4.586 0.181
02:12 1016 30 845 24.95 4.5 40 87 2.5 36.5 4.699 0.185
02:13 1016 30 845 24.95 4.4 39.8 86 2.3 36.1 4.603 0.181
02:14 1016 30 845 24.95 4.2 39.6 88 2.3 36.2 4.518 0.178
02:15 1016 30 845 24.95 4 39.2 88 2.2 35.9 4.371 0.172
02:16 1016 30 845 24.95 3.8 38.9 89 2.2 35.9 4.229 0.166
02:17 1016 30 845 24.95 3.7 38.7 90 2.3 36.1 4.116 0.162
02:18 1016 30 845 24.95 3.7 38.6 91 2.3 36.2 4.116 0.162
02:19 1016 30 845 24.95 3.7 38.7 91 2.4 36.3 4.105 0.162
02:20 1016 30 845 24.95 3.8 38.8 91 2.4 36.3 4.156 0.164
02:21 1016 30 845 24.95 3.8 38.8 91 2.5 36.4 4.167 0.164
02:22 1016 30 845 24.95 3.9 39 91 2.5 36.6 4.246 0.167
02:23 1016 30 845 24.95 4 39.2 90 2.5 36.5 4.36 0.172
02:24 1016 30 845 24.95 4.1 39.4 89 2.5 36.5 4.427 0.174
02:25 1016 30 845 24.95 4.1 39.4 89 2.5 36.4 4.45 0.175
02:26 1016 30 845 24.95 4.1 39.4 89 2.4 36.4 4.473 0.176
02:27 1016 30 845 24.95 4.1 39.4 89 2.4 36.3 4.416 0.174
02:28 1016 30 845 24.95 4.3 39.7 88 2.5 36.4 4.552 0.179
02:29 1016 30 845 24.95 4.6 40.3 86 2.4 36.3 4.897 0.193
02:30 1016 30 845 24.95 4.8 40.6 84 2.3 36.1 5.078 0.2
02:31 1016 30 845 24.95 4.9 40.8 84 2.4 36.3 5.163 0.203
02:32 1016 30 845 24.95 4.9 40.9 84 2.5 36.4 5.186 0.204
02:33 1016 30 845 24.95 5.1 41.1 83 2.5 36.4 5.317 0.209
02:34 1016 30 845 24.95 5.1 41.2 83 2.5 36.5 5.362 0.211
02:35 1016 30 845 24.95 5.1 41.1 83 2.5 36.5 5.374 0.212
02:36 1016 30 845 24.95 5.1 41.2 84 2.6 36.6 5.375 0.212
02:37 1016 30 845 24.95 5.1 41.1 84 2.6 36.7 5.403 0.213
02:38 1016 30 845 24.95 5 41 84 2.5 36.5 5.364 0.211
02:39 1016 30 845 24.95 5 41 84 2.6 36.6 5.301 0.209
02:40 1016 30 845 24.95 5 40.9 84 2.5 36.5 5.244 0.206
02:41 1016 30 845 24.95 5 40.9 84 2.5 36.6 5.273 0.208
02:42 1016 30 845 24.95 4.9 40.9 85 2.5 36.6 5.228 0.206
02:43 1016 30 845 24.95 4.9 40.8 85 2.5 36.6 5.189 0.204
02:44 1016 30 845 24.95 4.9 40.8 85 2.5 36.6 5.161 0.203
02:45 1016 30 845 24.95 4.9 40.7 84 2.5 36.4 5.184 0.204
02:46 1016 30 845 24.95 4.9 40.8 85 2.5 36.5 5.161 0.203
02:47 1016 30 845 24.95 4.9 40.7 84 2.5 36.4 5.15 0.203
02:48 1016 30 845 24.95 4.8 40.7 85 2.5 36.4 5.134 0.202
02:49 1016 30 845 24.95 4.7 40.4 85 2.4 36.3 5.032 0.198
02:50 1016 30 845 24.95 4.6 40.3 86 2.5 36.4 4.93 0.194
02:51 1016 30 845 24.95 4.5 40.1 86 2.4 36.3 4.863 0.191
02:52 1016 30 845 24.95 4.5 40 87 2.4 36.4 4.818 0.19
02:53 1016 30 845 24.95 4.4 40 87 2.5 36.5 4.789 0.189
02:54 1016 30 845 24.95 4.5 40.1 87 2.5 36.5 4.824 0.19
02:55 1016 30 845 24.95 4.5 40.2 86 2.4 36.4 4.824 0.19
02:56 1016 30 845 24.95 4.6 40.2 86 2.4 36.4 4.846 0.191
02:57 1016 30 845 24.95 4.6 40.3 86 2.4 36.4 4.92 0.194
02:58 1016 30 845 24.95 4.7 40.5 85 2.4 36.2 5.011 0.197
02:59 1016 30 845 24.95 4.7 40.4 85 2.3 36.1 4.96 0.195
03:00 1016 30 845 24.95 4.5 40.2 86 2.3 36.2 4.853 0.191
03:01 1016 30 845 24.95 4.5 40.1 86 2.4 36.3 4.841 0.191
03:02 1016 30 845 24.95 4.5 40 86 2.3 36.2 4.751 0.187
03:03 1016 30 845 24.95 4.4 39.8 86 2.3 36.1 4.706 0.185
03:04 1016 30 845 24.95 4.3 39.7 87 2.3 36.1 4.587 0.181
03:05 1016 30 845 24.95 4.2 39.6 87 2.3 36.1 4.53 0.178
03:06 1016 30 845 24.95 4.1 39.4 88 2.3 36.1 4.457 0.175
03:07 1016 30 845 24.95 4.1 39.4 88 2.3 36.1 4.44 0.175
03:08 1016 30 845 24.95 4.1 39.4 88 2.2 36 4.429 0.174
03:09 1016 30 845 24.95 4.1 39.4 88 2.3 36.1 4.463 0.176
03:10 1016 30 845 24.95 4 39.3 88 2.2 36 4.412 0.174
03:11 1016 30 845 24.95 4 39.2 88 2.2 36 4.372 0.172
03:12 1016 30 845 24.95 4 39.1 88 2.1 35.9 4.31 0.17
03:13 1016 30 845 24.95 3.9 39 88 2.2 35.9 4.253 0.167
03:14 1016 30 845 24.95 3.8 38.9 89 2.1 35.9 4.18 0.165
03:15 1016 30 845 24.95 3.8 38.8 89 2.2 35.9 4.157 0.164
03:16 1016 30 845 24.95 3.7 38.7 89 2.1 35.8 4.123 0.162
03:17 1016 30 845 24.95 3.7 38.6 89 2.1 35.7 4.034 0.159
03:18 1016 30 845 24.95 3.6 38.5 89 2.1 35.7 4.017 0.158
03:19 1016 30 845 24.95 3.6 38.4 90 2.1 35.7 3.984 0.157
03:20 1016 30 845 24.95 3.6 38.5 90 2.1 35.8 3.996 0.157
03:21 1016 30 845 24.95 3.7 38.7 89 2.1 35.8 4.07 0.16
03:22 1016 30 845 24.95 3.8 38.9 88 2.1 35.7 4.132 0.163
03:23 1016 30 845 24.95 3.8 38.9 88 2.1 35.8 4.161 0.164
03:24 1016 30 845 24.95 3.9 39 88 2.1 35.8 4.269 0.168
03:25 1016 30 845 24.95 4 39.1 88 2.2 35.9 4.275 0.168
03:26 1016 30 845 24.95 3.9 39.1 88 2.1 35.8 4.303 0.169
03:27 1016 30 845 24.95 3.8 38.9 88 2 35.6 4.253 0.167
03:28 1016 30 845 24.95 3.7 38.7 88 2 35.6 4.105 0.162
03:29 1016 30 845 24.95 3.6 38.5 89 2 35.5 3.997 0.157
03:30 1016 30 845 24.95 3.6 38.5 89 2 35.6 3.974 0.156
03:31 1016 30 845 24.95 3.6 38.5 89 2 35.6 3.958 0.156
03:32 1016 30 845 24.95 3.6 38.5 90 2 35.6 3.919 0.154
03:33 1016 30 845 24.95 3.6 38.5 90 2.1 35.8 3.987 0.157
03:34 1016 30 845 24.95 3.7 38.6 89 2.1 35.7 3.992 0.157
03:35 1016 30 845 24.95 3.7 38.7 89 2.1 35.7 4.015 0.158
03:36 1016 30 845 24.95 3.6 38.6 89 2 35.6 3.982 0.157
03:37 1016 30 845 24.95 3.6 38.5 90 2.1 35.7 3.959 0.156
03:38 1016 30 845 24.95 3.6 38.6 90 2.1 35.7 4.016 0.158
03:39 1016 30 845 24.95 3.7 38.6 89 2.1 35.8 4.022 0.158
03:40 1016 30 845 24.95 3.7 38.7 89 2.1 35.8 4.078 0.161
03:41 1016 30 845 24.95 3.7 38.7 89 2 35.6 4.09 0.161
03:42 1016 30 845 24.95 3.7 38.6 89 2 35.6 4.016 0.158
03:43 1016 30 845 24.95 3.6 38.5 89 2 35.6 3.966 0.156
03:44 1016 30 845 24.95 3.6 38.5 90 2.1 35.8 3.966 0.156
03:45 1016 30 845 24.95 3.7 38.6 90 2.2 35.9 4.011 0.158
03:46 1016 30 845 24.95 3.7 38.7 90 2.2 35.9 4.057 0.16
03:47 1016 30 845 24.95 3.7 38.7 90 2.2 35.9 4.045 0.159
03:48 1016 30 845 24.95 3.7 38.6 90 2.2 36 4.051 0.159
03:49 1016 30 845 24.95 3.8 38.8 90 2.3 36.1 4.153 0.164
03:50 1016 30 845 24.95 3.8 38.9 89 2.3 36.1 4.181 0.165
03:51 1016 30 845 24.95 3.8 38.9 90 2.3 36.1 4.164 0.164
03:52 1016 30 845 24.95 3.8 38.8 90 2.3 36.1 4.165 0.164
03:53 1016 30 845 24.95 3.8 38.8 90 2.2 36 4.165 0.164
03:54 1016 30 845 24.95 3.8 38.8 90 2.2 36 4.114 0.162
03:55 1016 30 845 24.95 3.7 38.7 90 2.2 35.9 4.091 0.161
03:56 1016 30 845 24.95 3.7 38.7 90 2.2 36 4.046 0.159
03:57 1016 30 845 24.95 3.7 38.7 91 2.3 36.1 4.012 0.158
03:58 1016 30 845 24.95 3.7 38.7 91 2.3 36.2 4.12 0.162
03:59 1016 30 845 24.95 3.8 38.8 90 2.3 36.2 4.091 0.161
04:00 1016 30 845 24.95 3.8 38.9 90 2.3 36.1 4.165 0.164
04:01 1016 30 845 24.95 3.8 38.9 90 2.3 36.2 4.176 0.164
04:02 1016 30 845 24.95 3.8 38.9 90 2.3 36.1 4.154 0.164
04:03 1016 30 845 24.95 3.8 38.9 90 2.3 36.1 4.131 0.163
04:04 1016 30 845 24.95 3.8 38.8 89 2.2 35.9 4.125 0.162
04:05 1016 30 845 24.95 3.7 38.6 90 2.1 35.8 4.035 0.159
04:06 1016 30 845 24.95 3.6 38.5 90 2.1 35.8 3.922 0.154
04:07 1016 30 845 24.95 3.5 38.3 90 2 35.7 3.899 0.154
04:08 1016 30 845 24.95 3.5 38.3 91 2.1 35.7 3.871 0.152
04:09 1016 30 845 24.95 3.5 38.3 90 2 35.7 3.848 0.151
04:10 1016 30 845 24.95 3.5 38.3 90 2 35.7 3.837 0.151
04:11 1016 30 845 24.95 3.5 38.3 90 2 35.6 3.848 0.151
04:12 1016 30 845 24.95 3.5 38.3 90 2 35.5 3.814 0.15
04:13 1016 30 845 24.95 3.4 38.2 90 1.9 35.4 3.775 0.149
04:14 1016 30 845 24.95 3.3 38 91 1.9 35.5 3.735 0.147
04:15 1016 30 845 24.95 3.3 38 91 2 35.5 3.707 0.146
04:16 1016 30 845 24.95 3.3 38 91 2 35.6 3.701 0.146
04:17 1016 30 845 24.95 3.3 37.9 91 1.9 35.4 3.673 0.145
04:18 1016 30 845 24.95 3.2 37.8 90 1.8 35.2 3.543 0.139
04:19 1016 30 845 24.95 3.1 37.5 91 1.7 35.1 3.418 0.135
04:20 1016 30 845 24.95 2.9 37.3 92 1.7 35.1 3.345 0.132
04:21 1016 30 845 24.95 2.9 37.2 92 1.8 35.2 3.322 0.131
04:22 1016 30 845 24.95 2.9 37.2 93 1.9 35.4 3.316 0.131
04:23 1016 30 845 24.95 2.9 37.3 93 1.9 35.4 3.345 0.132
04:24 1016 30 845 24.95 3.1 37.5 93 2 35.6 3.401 0.134
04:25 1016 30 845 24.95 3.1 37.6 92 2 35.6 3.441 0.135
04:26 1016 30 845 24.95 3.2 37.8 92 2 35.6 3.543 0.139
04:27 1016 30 845 24.95 3.3 37.9 91 2 35.5 3.56 0.14
04:28 1016 30 845 24.95 3.3 37.9 91 2 35.6 3.622 0.143
04:29 1016 30 845 24.95 3.3 38 91 2 35.6 3.673 0.145
04:30 1016 30 845 24.95 3.4 38.1 91 2 35.6 3.707 0.146
04:31 1016 30 845 24.95 3.4 38.1 91 2 35.6 3.724 0.147
04:32 1016 30 845 24.95 3.4 38.1 90 2 35.5 3.69 0.145
04:33 1016 30 845 24.95 3.4 38.1 90 1.9 35.4 3.718 0.146
04:34 1016 30 845 24.95 3.4 38.2 90 2 35.6 3.735 0.147
04:35 1016 30 845 24.95 3.4 38.1 90 2 35.5 3.729 0.147
04:36 1016 30 845 24.95 3.4 38.1 90 1.9 35.5 3.729 0.147
04:37 1016 30 845 24.95 3.3 38 90 1.9 35.5 3.684 0.145
04:38 1016 30 845 24.95 3.3 37.9 91 1.9 35.5 3.645 0.144
04:39 1016 30 845 24.95 3.3 37.9 91 2 35.6 3.628 0.143
04:40 1016 30 845 24.95 3.3 37.9 91 2 35.6 3.622 0.143
04:41 1016 30 845 24.95 3.2 37.8 91 1.8 35.3 3.526 0.139
04:42 1016 30 845 24.95 3.1 37.6 91 1.8 35.2 3.441 0.135
04:43 1016 30 845 24.95 3 37.4 91 1.7 35 3.333 0.131
04:44 1016 30 845 24.95 2.9 37.2 92 1.6 35 3.271 0.129
04:45 1016 30 845 24.95 2.8 37 92 1.7 35 3.164 0.125
04:46 1016 30 845 24.95 2.8 37 92 1.6 34.9 3.141 0.124
04:47 1016 30 845 24.95 2.7 36.8 92 1.5 34.8 3.045 0.12
04:48 1016 30 845 24.95 2.6 36.7 93 1.6 34.9 2.971 0.117
04:49 1016 30 845 24.95 2.6 36.7 94 1.7 35.1 2.994 0.118
04:50 1016 30 845 24.95 2.7 36.9 94 1.9 35.3 3.028 0.119
04:51 1016 30 845 24.95 2.8 37.1 94 1.9 35.4 3.124 0.123
04:52 1016 30 845 24.95 2.9 37.2 93 1.9 35.4 3.209 0.126
04:53 1016 30 845 24.95 2.9 37.3 92 1.8 35.3 3.277 0.129
04:54 1016 30 845 24.95 2.9 37.3 92 1.8 35.3 3.265 0.129
04:55 1016 30 845 24.95 2.9 37.2 92 1.8 35.2 3.237 0.127
04:56 1016 30 845 24.95 2.9 37.2 93 1.8 35.3 3.271 0.129
04:57 1016 30 845 24.95 2.9 37.3 92 1.8 35.3 3.288 0.129
04:58 1016 30 845 24.95 2.9 37.2 93 1.8 35.3 3.294 0.13
04:59 1016 30 845 24.95 3 37.3 93 1.9 35.4 3.271 0.129
05:00 1016 30 845 24.95 3 37.4 93 1.9 35.4 3.288 0.129
05:01 1016 30 845 24.95 3 37.4 93 1.9 35.4 3.333 0.131
05:02 1016 30 845 24.95 3 37.5 92 1.9 35.5 3.396 0.134
05:03 1016 30 845 24.95 3.1 37.5 92 1.9 35.5 3.356 0.132
05:04 1016 30 845 24.95 3 37.5 92 1.8 35.3 3.373 0.133
05:05 1016 30 845 24.95 3 37.4 92 1.8 35.2 3.271 0.129
05:06 1016 30 845 24.95 2.9 37.1 92 1.7 35 3.237 0.127
05:07 1016 30 845 24.95 2.8 37.1 92 1.7 35.1 3.164 0.125
05:08 1016 30 845 24.95 2.8 37 93 1.7 35.1 3.135 0.123
05:09 1016 30 845 24.95 2.7 36.9 93 1.6 35 3.056 0.12
05:10 1016 30 845 24.95 2.7 36.8 93 1.6 34.8 3.005 0.118
05:11 1016 30 845 24.95 2.6 36.7 93 1.5 34.8 2.932 0.115
05:12 1016 30 845 24.95 2.5 36.6 93 1.5 34.7 2.886 0.114
05:13 1016 30 845 24.95 2.6 36.6 93 1.6 34.9 2.858 0.113
05:14 1016 30 845 24.95 2.5 36.6 93 1.6 34.8 2.847 0.112
05:15 1016 30 845 24.95 2.5 36.6 93 1.5 34.8 2.801 0.11
05:16 1016 30 845 24.95 2.6 36.6 95 1.8 35.2 2.892 0.114
05:17 1016 30 845 24.95 2.7 36.8 94 1.8 35.2 2.994 0.118
05:18 1016 30 845 24.95 2.7 36.9 94 1.8 35.3 3.056 0.12
05:19 1016 30 845 24.95 2.8 37 94 1.8 35.3 3.118 0.123
05:20 1016 30 845 24.95 2.8 37.1 94 1.9 35.5 3.135 0.123
05:21 1016 30 845 24.95 2.9 37.2 94 2 35.7 3.214 0.127
05:22 1016 30 845 24.95 3 37.4 94 2.1 35.9 3.328 0.131
05:23 1016 30 845 24.95 3.1 37.6 93 2.1 35.9 3.418 0.135
05:24 1016 30 845 24.95 3.2 37.8 92 2 35.7 3.531 0.139
05:25 1016 30 845 24.95 3.3 37.9 91 2 35.6 3.548 0.14
05:26 1016 30 845 24.95 3.2 37.8 91 1.9 35.4 3.418 0.135
05:27 1016 30 845 24.95 3.1 37.6 91 1.8 35.2 3.362 0.132
05:28 1016 30 845 24.95 3 37.4 90 1.5 34.7 3.271 0.129
05:29 1016 30 845 24.95 2.9 37.3 90 1.5 34.7 3.158 0.124
05:30 1016 30 845 24.95 2.8 37 91 1.4 34.6 3.084 0.121
05:31 1016 30 845 24.95 2.7 36.8 92 1.5 34.6 2.999 0.118
05:32 1016 30 845 24.95 2.7 36.8 92 1.5 34.8 2.982 0.117
05:33 1016 30 845 24.95 2.7 36.9 93 1.7 35 3.05 0.12
05:34 1016 30 845 24.95 2.8 37 92 1.7 35 3.118 0.123
05:35 1016 30 845 24.95 2.9 37.1 91 1.6 34.8 3.164 0.125
05:36 1016 30 845 24.95 2.8 37 91 1.5 34.7 3.141 0.124
05:37 1016 30 845 24.95 2.8 37 92 1.6 35 3.13 0.123
05:38 1016 30 845 24.95 2.9 37.2 92 1.6 34.9 3.197 0.126
05:39 1016 30 845 24.95 2.9 37.2 91 1.5 34.7 3.209 0.126
05:40 1016 30 845 24.95 2.8 37.1 90 1.4 34.5 3.124 0.123
05:41 1016 30 845 24.95 2.7 36.9 91 1.4 34.5 3.033 0.119
05:42 1016 30 845 24.95 2.7 36.9 91 1.3 34.3 2.954 0.116
05:43 1016 30 845 24.95 2.6 36.7 90 1.1 34 2.937 0.116
05:44 1016 30 845 24.95 2.4 36.4 90 0.9 33.6 2.779 0.109
05:45 1016 30 845 24.95 2.2 36 90 0.8 33.4 2.569 0.101
05:46 1016 30 845 24.95 2.1 35.7 91 0.8 33.5 2.45 0.096
05:47 1016 30 845 24.95 2 35.6 92 0.8 33.5 2.388 0.094
05:48 1016 30 845 24.95 1.9 35.4 91 0.5 32.9 2.258 0.089
05:49 1016 30 845 24.95 1.7 35.1 91 0.3 32.6 2.037 0.08
05:50 1016 30 845 24.95 1.5 34.7 92 0.3 32.6 1.913 0.075
05:51 1016 30 845 24.95 1.4 34.5 92 0.3 32.5 1.828 0.072
05:52 1016 30 845 24.95 1.3 34.4 93 0.3 32.5 1.766 0.07
05:53 1016 30 845 24.95 1.3 34.3 94 0.4 32.7 1.699 0.067
05:54 1016 30 845 24.95 1.3 34.4 94 0.5 32.9 1.688 0.066
05:55 1016 30 845 24.95 1.3 34.4 94 0.5 32.9 1.683 0.066
05:56 1016 30 845 24.95 1.3 34.4 95 0.6 33 1.661 0.065
05:57 1016 30 845 24.95 1.4 34.6 95 0.8 33.4 1.768 0.07
05:58 1016 30 845 24.95 1.6 34.9 96 0.9 33.7 1.95 0.077
05:59 1016 30 845 24.95 1.8 35.2 95 1.1 33.9 2.131 0.084
06:00 1016 30 845 24.95 2 35.6 94 1.2 34.1 2.29 0.09
06:01 1016 30 845 24.95 2.1 35.8 93 1.1 34 2.37 0.093
06:02 1016 30 845 24.95 2.2 35.9 93 1.1 34 2.404 0.095
06:03 1016 30 845 24.95 2.2 35.9 92 1 33.9 2.409 0.095
06:04 1016 30 845 24.95 2.2 35.9 92 1 33.8 2.427 0.096
06:05 1016 30 845 24.95 2.2 35.9 93 1.1 33.9 2.472 0.097
06:06 1016 30 845 24.95 2.2 35.9 93 1.1 34 2.495 0.098
06:07 1016 30 845 24.95 2.3 36.1 92 1.1 34 2.495 0.098
06:08 1016 30 845 24.95 2.2 36 92 1 33.8 2.529 0.1
06:09 1016 30 845 24.95 2.2 35.9 92 1 33.9 2.456 0.097
06:10 1016 30 845 24.95 2.3 36.1 94 1.4 34.5 2.564 0.101
06:11 1016 30 845 24.95 2.6 36.6 93 1.5 34.7 2.779 0.109
06:12 1016 30 845 24.95 2.7 36.9 92 1.5 34.7 2.966 0.117
06:13 1016 30 845 24.95 2.8 37.1 90 1.4 34.5 3 0.118
06:14 1016 30 845 24.95 2.8 37 90 1.3 34.3 2.983 0.117
06:15 1016 30 845 24.95 2.7 36.8 90 1.2 34.1 2.87 0.113
06:16 1016 30 845 24.95 2.6 36.6 90 1 33.9 2.791 0.11
06:17 1016 30 845 24.95 2.5 36.4 91 1.1 33.9 2.745 0.108
06:18 1016 30 845 24.95 2.4 36.3 91 1.1 34 2.689 0.106
06:19 1016 30 845 24.95 2.4 36.3 92 1.1 34 2.666 0.105
06:20 1016 30 845 24.95 2.3 36.2 91 1.1 33.9 2.615 0.103
06:21 1016 30 845 24.95 2.3 36.1 92 1.1 33.9 2.536 0.1
06:22 1016 30 845 24.95 2.2 36 93 1.2 34.1 2.508 0.099
06:23 1016 30 845 24.95 2.3 36.1 93 1.3 34.3 2.599 0.102
06:24 1016 30 845 24.95 2.4 36.3 93 1.3 34.4 2.667 0.105
06:25 1016 30 845 24.95 2.5 36.4 92 1.4 34.5 2.742 0.108
06:26 1016 30 845 24.95 2.5 36.5 92 1.3 34.3 2.747 0.108
06:27 1016 30 845 24.95 2.5 36.5 91 1.2 34.2 2.73 0.107
06:28 1016 30 845 24.95 2.5 36.5 91 1.2 34.2 2.724 0.107
06:29 1016 30 845 24.95 2.6 36.6 91 1.3 34.3 2.815 0.111
06:30 1016 30 845 24.95 2.7 36.8 91 1.4 34.5 2.878 0.113
06:31 1016 30 845 24.95 2.7 36.9 91 1.3 34.4 2.98 0.117
06:32 1016 30 845 24.95 2.6 36.7 89 1 33.8 2.901 0.114
06:33 1016 30 845 24.95 2.5 36.5 90 1 33.8 2.772 0.109
06:34 1016 30 845 24.95 2.4 36.4 91 1.1 34 2.71 0.107
06:35 1016 30 845 24.95 2.4 36.3 91 1.1 33.9 2.71 0.107
06:36 1016 30 845 24.95 2.3 36.2 91 1 33.8 2.698 0.106
06:37 1016 30 845 24.95 2.3 36.2 91 1 33.8 2.653 0.104
06:38 1016 30 845 24.95 2.3 36.2 91 1 33.9 2.658 0.105
06:39 1016 30 845 24.95 2.3 36.2 92 1.1 34 2.618 0.103
06:40 1016 30 845 24.95 2.4 36.2 92 1.1 34 2.635 0.104
06:41 1016 30 845 24.95 2.3 36.2 92 1.1 34 2.635 0.104
06:42 1016 30 845 24.95 2.3 36.2 92 1.1 34 2.625 0.103
06:43 1016 30 845 24.95 2.3 36.1 91 1 33.9 2.631 0.104
06:44 1016 30 845 24.95 2.3 36.1 92 1.1 34 2.591 0.102
06:45 1016 30 845 24.95 2.3 36.2 92 1.1 34 2.693 0.106
06:46 1016 30 845 24.95 2.4 36.3 92 1.2 34.1 2.739 0.108
06:47 1016 30 845 24.95 2.5 36.4 91 1.1 34.1 2.773 0.109
06:48 1016 30 845 24.95 2.5 36.4 91 1.1 34 2.762 0.109
06:49 1016 30 845 24.95 2.5 36.5 91 1.1 34 2.796 0.11
06:50 1016 30 845 24.95 2.5 36.5 91 1.1 34 2.83 0.111
06:51 1016 30 845 24.95 2.5 36.5 91 1.2 34.1 2.853 0.112
06:52 1016 30 845 24.95 2.5 36.6 91 1.2 34.1 2.87 0.113
06:53 1016 30 845 24.95 2.6 36.6 90 1.1 34 2.882 0.113
06:54 1016 30 845 24.95 2.6 36.6 90 1.1 34 2.927 0.115
06:55 1016 30 845 24.95 2.6 36.6 90 1.1 34 2.91 0.115
06:56 1016 30 845 24.95 2.6 36.6 90 1.1 34 2.91 0.115
06:57 1016 30 845 24.95 2.6 36.7 90 1.1 34.1 2.911 0.115
06:58 1016 30 845 24.95 2.6 36.6 90 1.1 34 2.865 0.113
06:59 1016 30 845 24.95 2.6 36.6 90 1.1 34 2.899 0.114
07:00 1016 30 845 24.95 2.5 36.6 90 1.1 33.9 2.871 0.113
07:01 1016 30 845 24.95 2.5 36.5 90 1 33.9 2.786 0.11
07:02 1016 30 845 24.95 2.5 36.4 90 1 33.8 2.787 0.11
07:03 1016 30 845 24.95 2.4 36.3 90 1 33.8 2.758 0.109
07:04 1016 30 845 24.95 2.3 36.2 90 0.9 33.7 2.69 0.106
07:05 1016 30 845 24.95 2.3 36.1 91 0.9 33.6 2.651 0.104
07:06 1016 30 845 24.95 2.2 36 91 0.9 33.6 2.611 0.103
07:07 1016 30 845 24.95 2.2 36 91 0.9 33.5 2.572 0.101
07:08 1016 30 845 24.95 2.2 35.9 91 0.8 33.4 2.509 0.099
07:09 1016 30 845 24.95 2 35.6 90 0.5 33 2.402 0.095
07:10 1016 30 845 24.95 1.9 35.3 91 0.5 32.9 2.249 0.089
07:11 1016 30 845 24.95 1.7 35.1 91 0.4 32.7 2.074 0.082
07:12 1016 30 845 24.95 1.6 34.8 92 0.4 32.7 2 0.079
07:13 1016 30 845 24.95 1.5 34.7 92 0.4 32.7 1.904 0.075
07:14 1016 30 845 24.95 1.4 34.6 93 0.4 32.7 1.842 0.073
07:15 1016 30 845 24.95 1.4 34.6 94 0.5 32.9 1.859 0.073
07:16 1016 30 845 24.95 1.4 34.6 94 0.6 33 1.825 0.072
07:17 1016 30 845 24.95 1.5 34.7 94 0.6 33.1 1.842 0.073
07:18 1016 30 845 24.95 1.5 34.8 95 0.8 33.4 1.915 0.075
07:19 1016 30 845 24.95 1.7 35.1 95 1 33.8 2.068 0.081
07:20 1016 30 845 24.95 1.9 35.4 95 1.1 34 2.238 0.088
07:21 1016 30 845 24.95 2 35.7 94 1.1 34 2.391 0.094
07:22 1016 30 845 24.95 2.1 35.9 93 1.1 34 2.493 0.098
07:23 1016 30 845 24.95 2.3 36.1 92 1.2 34.1 2.533 0.1
07:24 1016 30 845 24.95 2.3 36.2 92 1.2 34.1 2.595 0.102
07:25 1016 30 845 24.95 2.4 36.4 92 1.2 34.2 2.702 0.106
07:26 1016 30 845 24.95 2.5 36.5 91 1.2 34.2 2.799 0.11
07:27 1016 30 845 24.95 2.6 36.6 91 1.2 34.2 2.878 0.113
07:28 1016 30 845 24.95 2.6 36.7 91 1.3 34.3 2.878 0.113
07:29 1016 30 845 24.95 2.6 36.6 91 1.2 34.2 2.929 0.115
07:30 1016 30 845 24.95 2.6 36.6 91 1.2 34.2 2.935 0.116
07:31 1016 30 845 24.95 2.6 36.6 91 1.3 34.3 2.929 0.115
07:32 1016 30 845 24.95 2.6 36.6 91 1.3 34.3 2.923 0.115
07:33 1016 30 845 24.95 2.6 36.6 92 1.3 34.4 2.957 0.116
07:34 1016 30 845 24.95 2.6 36.6 92 1.4 34.5 2.878 0.113
07:35 1016 30 845 24.95 2.5 36.6 92 1.4 34.5 2.946 0.116
07:36 1016 30 845 24.95 2.7 36.8 92 1.6 34.8 3.02 0.119
07:37 1016 30 845 24.95 2.8 37 92 1.6 34.9 3.206 0.126
07:38 1015 29.97 845 24.95 3.1 37.5 91 1.7 35.1 3.45 0.136
07:39 1015 29.97 845 24.95 3.3 37.9 90 1.7 35.1 3.591 0.141
07:40 1015 29.97 845 24.95 3.5 38.3 89 1.8 35.2 3.705 0.146
07:41 1016 30 845 24.95 3.6 38.4 88 1.8 35.2 3.795 0.149
07:42 1015 29.97 845 24.95 3.7 38.6 87 1.7 35.1 3.903 0.154
07:43 1015 29.97 845 24.95 3.8 38.8 87 1.8 35.2 3.976 0.157
07:44 1016 30 845 24.95 3.8 38.9 86 1.7 35.1 4.067 0.16
07:45 1016 30 845 24.95 3.8 38.8 86 1.7 35.1 4.061 0.16
07:46 1016 30 845 24.95 3.8 38.8 86 1.7 35 4.112 0.162
07:47 1016 30 845 24.95 3.7 38.7 86 1.7 35 4.067 0.16
07:48 1016 30 845 24.95 3.7 38.6 86 1.6 34.9 3.976 0.157
07:49 1016 30 845 24.95 3.6 38.5 87 1.7 35 3.948 0.155
07:50 1016 30 845 24.95 3.5 38.4 88 1.7 35 3.846 0.151
07:51 1016 30 845 24.95 3.5 38.4 88 1.7 35 3.858 0.152
07:52 1015 29.97 845 24.95 3.5 38.3 88 1.7 35.1 3.824 0.151
07:53 1015 29.97 845 24.95 3.6 38.5 87 1.7 35.1 3.914 0.154
07:54 1015 29.97 845 24.95 3.7 38.7 86 1.7 35 3.982 0.157
07:55 1015 29.97 845 24.95 3.8 38.8 86 1.7 35 4.016 0.158
07:56 1015 29.97 845 24.95 3.8 38.9 86 1.7 35.1 4.033 0.159
07:57 1015 29.97 845 24.95 3.8 38.8 86 1.7 35.1 4.039 0.159
07:58 1016 30 845 24.95 3.7 38.6 87 1.7 35.1 3.988 0.157
07:59 1016 30 845 24.95 3.6 38.5 88 1.8 35.2 3.982 0.157
08:00 1016 30 845 24.95 3.6 38.4 88 1.8 35.2 3.931 0.155
08:01 1016 30 845 24.95 3.6 38.5 88 1.8 35.2 3.925 0.155
08:02 1016 30 845 24.95 3.6 38.5 88 1.9 35.3 3.976 0.157
08:03 1016 30 845 24.95 3.7 38.6 88 1.9 35.4 4.033 0.159
08:04 1016 30 845 24.95 3.8 38.8 88 2 35.6 4.129 0.163
08:05 1016 30 845 24.95 3.8 38.9 88 2 35.6 4.124 0.162
08:06 1016 30 845 24.95 3.7 38.7 88 2 35.6 4.061 0.16
08:07 1016 30 845 24.95 3.7 38.7 89 2.1 35.7 4.033 0.159
08:08 1016 30 845 24.95 3.7 38.6 89 2 35.7 3.982 0.157
08:09 1016 30 845 24.95 3.7 38.6 89 2.1 35.7 4.022 0.158
08:10 1016 30 845 24.95 3.7 38.6 89 2.1 35.8 4.061 0.16
08:11 1016 30 845 24.95 3.7 38.7 90 2.2 35.9 4.033 0.159
08:12 1016 30 845 24.95 3.8 38.9 90 2.2 36 4.112 0.162
08:13 1016 30 845 24.95 3.8 38.9 90 2.3 36.1 4.146 0.163
08:14 1016 30 845 24.95 3.9 38.9 90 2.3 36.2 4.197 0.165
08:15 1016 30 845 24.95 4 39.1 89 2.4 36.3 4.265 0.168
08:16 1016 30 845 24.95 4 39.3 89 2.4 36.3 4.361 0.172
08:17 1016 30 845 24.95 4.1 39.3 89 2.4 36.3 4.401 0.173
08:18 1016 30 845 24.95 4.1 39.4 89 2.4 36.4 4.446 0.175
08:19 1016 30 845 24.95 4.2 39.6 89 2.5 36.5 4.526 0.178
08:20 1016 30 845 24.95 4.3 39.8 89 2.6 36.7 4.61 0.181
08:21 1016 30 845 24.95 4.4 39.9 88 2.5 36.6 4.701 0.185
08:22 1016 30 845 24.95 4.5 40.1 88 2.6 36.7 4.803 0.189
08:23 1016 30 845 24.95 4.6 40.2 87 2.6 36.7 4.848 0.191
08:24 1016 30 845 24.95 4.6 40.4 87 2.7 36.9 4.916 0.194
08:25 1016 30 845 24.95 4.7 40.4 87 2.7 36.9 4.983 0.196
08:26 1016 30 845 24.95 4.7 40.5 87 2.8 37 5.034 0.198
08:27 1016 30 845 24.95 4.8 40.7 87 2.8 37.1 5.164 0.203
08:28 1016 30 845 24.95 5.1 41.1 86 2.9 37.3 5.361 0.211
08:29 1016 30 845 24.95 5.2 41.4 87 3.2 37.8 5.536 0.218
08:30 1016 30 845 24.95 5.3 41.6 86 3.1 37.7 5.632 0.222
08:31 1016 30 845 24.95 5.4 41.8 86 3.3 38 5.699 0.224
08:32 1016 30 845 24.95 5.5 41.9 85 3.2 37.7 5.807 0.229
08:33 1016 30 845 24.95 5.6 42 85 3.3 37.9 5.863 0.231
08:34 1016 30 845 24.95 5.7 42.2 85 3.3 38 5.987 0.236
08:35 1016 30 845 24.95 5.8 42.5 86 3.7 38.6 6.123 0.241
08:36 1016 30 845 24.95 6 42.8 84 3.5 38.4 6.338 0.25
08:37 1016 30 845 24.95 6.2 43.2 84 3.6 38.6 6.49 0.256
08:38 1016 30 845 24.95 6.4 43.5 81 3.4 38 6.666 0.262
08:39 1016 30 845 24.95 6.6 43.9 81 3.7 38.6 6.909 0.272
08:40 1016 30 845 24.95 6.8 44.3 81 3.8 38.9 7.12 0.28
08:41 1016 30 845 24.95 7 44.6 79 3.6 38.6 7.34 0.289
08:42 1016 30 845 24.95 7.2 44.9 79 3.8 38.8 7.49 0.295
08:43 1016 30 845 24.95 7.3 45.1 79 3.9 39 7.65 0.301
08:44 1016 30 845 24.95 7.5 45.4 79 4.1 39.4 7.77 0.306
08:45 1016 30 845 24.95 7.6 45.6 77 3.8 38.8 7.95 0.313
08:46 1015 29.97 845 24.95 7.7 45.8 75 3.6 38.5 8.1 0.319
08:47 1015 29.97 845 24.95 7.8 46.1 77 4.1 39.3 8.28 0.326
08:48 1015 29.97 845 24.95 7.9 46.3 74 3.6 38.5 8.35 0.329
08:49 1016 30 845 24.95 8.1 46.5 76 4 39.2 8.45 0.333
08:50 1015 29.97 845 24.95 8.1 46.7 74 3.8 38.8 8.57 0.337
08:51 1015 29.97 845 24.95 8.2 46.7 72 3.4 38.2 8.59 0.338
08:52 1015 29.97 845 24.95 8.3 46.9 74 3.8 38.9 8.59 0.338
08:53 1016 30 845 24.95 8.3 47 73 3.8 38.8 8.69 0.342
08:54 1015 29.97 845 24.95 8.3 46.9 74 3.9 38.9 8.63 0.34
08:55 1015 29.97 845 24.95 8.3 47 73 3.7 38.7 8.67 0.341
08:56 1015 29.97 845 24.95 8.4 47.1 74 4 39.2 8.7 0.343
08:57 1015 29.97 845 24.95 8.4 47.2 71 3.6 38.5 8.76 0.345
08:58 1015 29.97 845 24.95 8.5 47.3 73 4 39.2 8.82 0.347
08:59 1015 29.97 845 24.95 8.6 47.4 71 3.6 38.4 8.99 0.354
09:00 1015 29.97 845 24.95 8.7 47.6 72 3.9 39 9.06 0.357
09:01 1015 29.97 845 24.95 8.8 47.8 73 4.2 39.5 9.15 0.36
09:02 1015 29.97 845 24.95 8.8 47.8 72 4 39.1 9.27 0.365
09:03 1015 29.97 845 24.95 8.9 48 68 3.4 38.1 9.33 0.367
09:04 1015 29.97 845 24.95 9 48.1 73 4.5 40.1 9.45 0.372
09:05 1015 29.97 845 24.95 9.1 48.3 68 3.4 38.2 9.59 0.378
09:06 1015 29.97 845 24.95 9.1 48.4 68 3.6 38.5 9.68 0.381
09:07 1015 29.97 845 24.95 9.2 48.5 69 3.7 38.7 9.74 0.383
09:08 1015 29.97 845 24.95 9.2 48.5 69 3.8 38.8 9.75 0.384
09:09 1015 29.97 845 24.95 9.2 48.5 69 3.9 39 9.79 0.385
09:10 1015 29.97 845 24.95 9.2 48.6 67 3.6 38.4 9.87 0.389
09:11 1015 29.97 845 24.95 9.3 48.8 73 4.7 40.4 9.92 0.391
09:12 1015 29.97 845 24.95 9.4 48.9 67 3.7 38.7 10.04 0.395
09:13 1015 29.97 845 24.95 9.5 49.1 67 3.8 38.9 10.07 0.396
09:14 1015 29.97 845 24.95 9.6 49.2 69 4.2 39.5 10.09 0.397
09:15 1015 29.97 845 24.95 9.6 49.3 69 4.1 39.4 10.04 0.395
09:16 1015 29.97 845 24.95 9.6 49.2 70 4.3 39.8 10.01 0.394
09:17 1015 29.97 845 24.95 9.5 49.1 63 2.9 37.3 9.97 0.393
09:18 1015 29.97 845 24.95 9.5 49 67 3.6 38.5 9.9 0.39
09:19 1015 29.97 845 24.95 9.5 49.1 67 3.8 38.8 10 0.394
09:20 1015 29.97 845 24.95 9.6 49.3 64 3.2 37.8 10.01 0.394
09:21 1015 29.97 845 24.95 9.6 49.3 64 3.1 37.6 9.94 0.391
09:22 1016 30 845 24.95 9.6 49.3 63 2.9 37.1 9.95 0.392
09:23 1015 29.97 845 24.95 9.6 49.3 62 2.8 37.1 10.06 0.396
09:24 1016 30 845 24.95 9.6 49.2 65 3.4 38.1 10.12 0.398
09:25 1015 29.97 845 24.95 9.6 49.4 66 3.7 38.7 10.27 0.404
09:26 1015 29.97 845 24.95 9.8 49.7 67 4 39.2 10.45 0.411
09:27 1015 29.97 845 24.95 10 50 67 4.1 39.4 10.64 0.419
09:28 1015 29.97 845 24.95 10.2 50.3 64 3.7 38.6 10.8 0.425
09:29 1015 29.97 845 24.95 10.3 50.5 70 5 41 10.92 0.43
09:30 1015 29.97 845 24.95 10.3 50.6 60 2.8 37.1 10.97 0.432
09:31 1016 30 845 24.95 10.4 50.6 60 3.1 37.5 10.93 0.43
09:32 1016 30 845 24.95 10.5 50.8 61 3.3 37.9 11 0.433
09:33 1016 30 845 24.95 10.7 51.2 61 3.4 38.1 11.13 0.438
09:34 1016 30 845 24.95 10.7 51.3 64 4.2 39.6 11.24 0.443
09:35 1016 30 845 24.95 10.8 51.4 62 3.8 38.8 11.33 0.446
09:36 1016 30 845 24.95 10.9 51.6 58 3.1 37.6 11.32 0.446
09:37 1016 30 845 24.95 10.9 51.7 61 3.7 38.6 11.13 0.438
09:38 1015 29.97 845 24.95 10.9 51.7 61 3.7 38.7 11.08 0.436
09:39 1015 29.97 845 24.95 10.9 51.7 59 3.2 37.8 11.08 0.436
09:40 1015 29.97 845 24.95 11 51.8 59 3.4 38.2 11.11 0.437
09:41 1015 29.97 845 24.95 11.1 51.9 60 3.5 38.4 11.09 0.437
09:42 1015 29.97 845 24.95 11 51.8 57 3 37.3 10.97 0.432
09:43 1015 29.97 845 24.95 11.1 51.9 58 3.2 37.7 11.06 0.435
09:44 1015 29.97 845 24.95 11.1 52 59 3.5 38.2 11.06 0.435
09:45 1015 29.97 845 24.95 11.1 52 61 3.9 39 11.14 0.439
09:46 1015 29.97 845 24.95 11.2 52.1 60 3.7 38.7 11.2 0.441
09:47 1015 29.97 845 24.95 11.3 52.3 59 3.7 38.7 11.3 0.445
09:48 1015 29.97 845 24.95 11.4 52.6 57 3.2 37.8 11.44 0.45
09:49 1015 29.97 845 24.95 11.5 52.8 59 3.8 38.8 11.46 0.451
09:50 1015 29.97 845 24.95 11.7 53 59 4.1 39.3 11.57 0.456
09:51 1015 29.97 845 24.95 11.8 53.2 56 3.5 38.2 11.66 0.459
09:52 1015 29.97 845 24.95 11.9 53.4 60 4.4 39.9 11.87 0.467
09:53 1015 29.97 845 24.95 12.1 53.8 56 3.7 38.7 12.01 0.473
09:54 1015 29.97 845 24.95 12.1 53.8 58 4.1 39.4 11.92 0.469
09:55 1015 29.97 845 24.95 12.2 53.9 57 4 39.2 11.94 0.47
09:56 1015 29.97 845 24.95 12.2 54 60 4.8 40.7 12.04 0.474
09:57 1015 29.97 845 24.95 12.3 54.1 58 4.2 39.6 12.15 0.478
09:58 1015 29.97 845 24.95 12.2 54 56 3.8 38.9 12.25 0.482
09:59 1015 29.97 845 24.95 12.2 53.9 56 3.7 38.6 12.38 0.487
10:00 1015 29.97 845 24.95 12.3 54.2 55 3.7 38.6 12.39 0.488
10:01 1015 29.97 845 24.95 12.3 54.2 54 3.3 38 12.35 0.486
10:02 1015 29.97 845 24.95 12.3 54.2 55 3.6 38.5 12.23 0.481
10:03 1015 29.97 845 24.95 12.3 54.1 55 3.5 38.2 12.22 0.481
10:04 1015 29.97 845 24.95 12.3 54.1 55 3.5 38.4 12.36 0.487
10:05 1015 29.97 845 24.95 12.3 54.1 55 3.7 38.6 12.41 0.489
10:06 1015 29.97 845 24.95 12.3 54.1 57 4.1 39.4 12.29 0.484
10:07 1015 29.97 845 24.95 12.3 54.1 58 4.3 39.7 12.28 0.483
10:08 1015 29.97 845 24.95 12.4 54.3 55 3.7 38.6 12.29 0.484
10:09 1015 29.97 845 24.95 12.4 54.4 57 4.2 39.5 12.33 0.485
10:10 1015 29.97 845 24.95 12.5 54.5 55 3.7 38.7 12.39 0.488
10:11 1015 29.97 845 24.95 12.4 54.4 59 4.7 40.5 12.52 0.493
10:12 1015 29.97 845 24.95 12.6 54.6 57 4.4 39.9 12.52 0.493
10:13 1015 29.97 845 24.95 12.7 54.8 55 3.8 38.9 12.52 0.493
10:14 1015 29.97 845 24.95 12.7 54.8 58 4.6 40.3 12.41 0.489
10:15 1015 29.97 845 24.95 12.5 54.5 54 3.6 38.5 12.36 0.487
10:16 1015 29.97 845 24.95 12.3 54.2 60 4.9 40.8 12.36 0.487
10:17 1015 29.97 845 24.95 12.4 54.3 57 4.1 39.4 12.42 0.489
10:18 1016 30 845 24.95 12.4 54.4 56 4 39.3 12.41 0.489
10:19 1016 30 845 24.95 12.3 54.2 57 4 39.2 12.37 0.487
10:20 1016 30 845 24.95 12.2 54 56 3.8 38.8 12.27 0.483
10:21 1016 30 845 24.95 12.2 53.9 55 3.6 38.4 12.21 0.481
10:22 1016 30 845 24.95 12.2 53.9 59 4.5 40.1 12.25 0.482
10:23 1016 30 845 24.95 12.2 54 55 3.5 38.3 12.36 0.487
10:24 1016 30 845 24.95 12.3 54.2 60 4.8 40.6 12.46 0.491
10:25 1016 30 845 24.95 12.5 54.4 55 3.8 38.9 12.63 0.497
10:26 1016 30 845 24.95 12.5 54.4 57 4.3 39.8 12.57 0.495
10:27 1016 30 845 24.95 12.5 54.5 56 4 39.1 12.61 0.496
10:28 1016 30 845 24.95 12.6 54.7 53 3.5 38.3 12.58 0.495
10:29 1016 30 845 24.95 12.6 54.6 53 3.3 38 12.61 0.496
10:30 1016 30 845 24.95 12.5 54.5 54 3.4 38.1 12.52 0.493
10:31 1016 30 845 24.95 12.5 54.5 60 5 40.9 12.51 0.493
10:32 1016 30 845 24.95 12.6 54.6 55 3.8 38.9 12.64 0.498
10:33 1016 30 845 24.95 12.6 54.6 53 3.4 38 12.66 0.498
10:34 1016 30 845 24.95 12.5 54.5 56 4 39.2 12.63 0.497
10:35 1016 30 845 24.95 12.4 54.4 52 2.9 37.2 12.66 0.498
10:36 1016 30 845 24.95 12.3 54.2 53 3 37.4 12.6 0.496
10:37 1016 30 845 24.95 12.3 54.2 51 2.6 36.7 12.6 0.496
10:38 1016 30 845 24.95 12.4 54.4 54 3.5 38.4 12.76 0.502
10:39 1016 30 845 24.95 12.5 54.5 53 3.2 37.8 12.82 0.505
10:40 1016 30 845 24.95 12.7 54.8 52 3.2 37.7 13 0.512
10:41 1016 30 845 24.95 12.7 54.8 57 4.4 39.9 13.08 0.515
10:42 1016 30 845 24.95 12.8 55 55 4 39.1 13.11 0.516
10:43 1016 30 845 24.95 12.7 54.9 51 3 37.4 13.08 0.515
10:44 1016 30 845 24.95 12.7 54.9 56 4.3 39.8 13.06 0.514
10:45 1016 30 845 24.95 12.8 55 53 3.6 38.4 13.16 0.518
10:46 1016 30 845 24.95 12.7 54.9 58 4.8 40.7 13.1 0.516
10:47 1016 30 845 24.95 12.7 54.8 55 3.9 39.1 13.03 0.513
10:48 1016 30 845 24.95 12.6 54.6 53 3.4 38.2 12.93 0.509
10:49 1015 29.97 845 24.95 12.6 54.6 52 3.1 37.6 12.95 0.51
10:50 1015 29.97 845 24.95 12.6 54.7 57 4.4 40 13.03 0.513
10:51 1015 29.97 845 24.95 12.8 55 53 3.5 38.3 13.16 0.518
10:52 1015 29.97 845 24.95 12.8 55 57 4.6 40.2 13.18 0.519
10:53 1015 29.97 845 24.95 12.8 55.1 55 4 39.3 13.28 0.523
10:54 1015 29.97 845 24.95 12.9 55.1 55 4 39.2 13.3 0.524
10:55 1015 29.97 845 24.95 12.9 55.1 59 5 41 13.32 0.524
10:56 1015 29.97 845 24.95 13 55.5 53 3.9 39 13.43 0.529
10:57 1015 29.97 845 24.95 13.1 55.7 56 4.7 40.5 13.35 0.526
10:58 1015 29.97 845 24.95 13.2 55.7 55 4.3 39.7 13.35 0.526
10:59 1015 29.97 845 24.95 13.2 55.8 53 4 39.1 13.33 0.525
11:00 1015 29.97 845 24.95 13.2 55.8 57 4.8 40.7 13.38 0.527
11:01 1015 29.97 845 24.95 13.4 56.1 54 4.3 39.8 13.57 0.534
11:02 1015 29.97 845 24.95 13.6 56.6 55 4.9 40.9 13.69 0.539
11:03 1015 29.97 845 24.95 13.9 56.9 55 5 40.9 13.9 0.547
11:04 1015 29.97 845 24.95 13.9 57 55 5.2 41.3 13.88 0.546
11:05 1015 29.97 845 24.95 13.7 56.7 50 3.5 38.3 13.88 0.546
11:06 1015 29.97 845 24.95 13.5 56.3 51 3.6 38.6 13.7 0.539
11:07 1015 29.97 845 24.95 13.5 56.2 54 4.4 40 13.63 0.537
11:08 1015 29.97 845 24.95 13.6 56.4 56 5.1 41.2 13.74 0.541
11:09 1015 29.97 845 24.95 13.6 56.6 54 4.6 40.2 13.78 0.543
11:10 1015 29.97 845 24.95 13.6 56.6 57 5.5 41.8 13.77 0.542
11:11 1015 29.97 845 24.95 13.6 56.5 54 4.4 40 13.72 0.54
11:12 1015 29.97 845 24.95 13.6 56.4 58 5.5 41.8 13.58 0.535
11:13 1015 29.97 845 24.95 13.6 56.4 51 3.7 38.6 13.72 0.54
11:14 1015 29.97 845 24.95 13.6 56.4 56 4.9 40.9 13.76 0.542
11:15 1015 29.97 845 24.95 13.5 56.3 54 4.5 40.1 13.69 0.539
11:16 1015 29.97 845 24.95 13.4 56.2 53 4.1 39.4 13.53 0.533
11:17 1015 29.97 845 24.95 13.4 56 56 4.9 40.8 13.45 0.53
11:18 1015 29.97 845 24.95 13.3 56 61 5.9 42.7 13.43 0.529
11:19 1015 29.97 845 24.95 13.4 56.2 57 5.3 41.5 13.59 0.535
11:20 1015 29.97 845 24.95 13.6 56.5 61 6.2 43.2 13.76 0.542
11:21 1015 29.97 845 24.95 13.7 56.7 53 4.3 39.7 13.92 0.548
11:22 1015 29.97 845 24.95 13.6 56.5 59 5.7 42.3 13.85 0.545
11:23 1015 29.97 845 24.95 13.6 56.5 53 4.3 39.8 13.87 0.546
11:24 1015 29.97 845 24.95 13.6 56.5 61 6.3 43.3 13.87 0.546
11:25 1015 29.97 845 24.95 13.7 56.6 53 4.2 39.6 13.93 0.548
11:26 1015 29.97 845 24.95 13.7 56.6 59 6 42.7 13.82 0.544
11:27 1015 29.97 845 24.95 13.7 56.7 50 3.5 38.3 13.83 0.544
11:28 1015 29.97 844 24.92 13.7 56.7 58 5.5 42 13.78 0.543
11:29 1015 29.97 844 24.92 13.8 56.8 54 4.8 40.6 13.93 0.548
11:30 1015 29.97 844 24.92 13.8 56.8 56 5.2 41.3 13.92 0.548
11:31 1015 29.97 844 24.92 13.8 56.8 53 4.5 40.2 13.85 0.545
11:32 1015 29.97 844 24.92 13.9 56.9 56 5.2 41.3 14.01 0.552
11:33 1015 29.97 844 24.92 13.9 57 53 4.5 40.1 14.05 0.553
11:34 1015 29.97 844 24.92 13.9 57 55 5 41 14.17 0.558
11:35 1015 29.97 844 24.92 14 57.1 53 4.7 40.5 14.26 0.561
11:36 1015 29.97 844 24.92 13.9 57 57 5.7 42.3 14.13 0.556
11:37 1015 29.97 844 24.92 13.7 56.7 55 4.9 40.9 14.01 0.552
11:38 1015 29.97 844 24.92 13.7 56.7 62 6.6 43.8 13.88 0.546
11:39 1015 29.97 844 24.92 13.8 56.8 61 6.4 43.6 13.94 0.549
11:40 1015 29.97 844 24.92 13.8 56.8 56 5.1 41.2 13.92 0.548
11:41 1015 29.97 844 24.92 13.7 56.6 54 4.7 40.5 13.85 0.545
11:42 1015 29.97 844 24.92 13.6 56.5 59 5.8 42.4 13.74 0.541
11:43 1015 29.97 844 24.92 13.6 56.4 61 6.2 43.1 13.85 0.545
11:44 1015 29.97 844 24.92 13.8 56.8 55 4.9 40.7 14.1 0.555
11:45 1015 29.97 844 24.92 13.9 57 55 5.2 41.4 14.23 0.56
11:46 1015 29.97 844 24.92 13.9 57 56 5.4 41.8 14.19 0.559
11:47 1015 29.97 844 24.92 14 57.2 58 6 42.7 14.25 0.561
11:48 1015 29.97 844 24.92 14.1 57.3 57 5.8 42.5 14.21 0.559
11:49 1015 29.97 844 24.92 14 57.2 57 5.8 42.4 14.13 0.556
11:50 1015 29.97 844 24.92 13.8 56.9 58 5.7 42.2 13.96 0.55
11:51 1015 29.97 844 24.92 13.7 56.7 59 5.8 42.5 13.96 0.55
11:52 1015 29.97 844 24.92 13.8 56.8 59 6 42.9 13.96 0.55
11:53 1015 29.97 844 24.92 13.7 56.7 55 5 41.1 13.98 0.55
11:54 1015 29.97 844 24.92 13.8 56.9 58 5.8 42.5 13.97 0.55
11:55 1015 29.97 844 24.92 13.8 56.8 56 5.3 41.5 13.96 0.55
11:56 1015 29.97 844 24.92 13.8 56.8 54 4.8 40.6 13.96 0.55
11:57 1015 29.97 844 24.92 13.9 57 59 6 42.8 13.96 0.55
11:58 1015 29.97 844 24.92 13.8 56.9 53 4.6 40.2 13.94 0.549
11:59 1015 29.97 844 24.92 13.8 56.8 55 4.9 40.8 13.88 0.546
12:00 1015 29.97 844 24.92 13.7 56.7 59 5.8 42.5 13.86 0.546
12:01 1015 29.97 844 24.92 13.7 56.6 54 4.5 40.1 13.79 0.543
12:02 1015 29.97 844 24.92 13.5 56.3 57 5.4 41.6 13.68 0.539
12:03 1015 29.97 844 24.92 13.5 56.2 57 5.1 41.1 13.64 0.537
12:04 1015 29.97 844 24.92 13.5 56.3 59 5.6 42.1 13.73 0.541
12:05 1015 29.97 844 24.92 13.6 56.5 59 5.7 42.3 13.85 0.545
12:06 1015 29.97 844 24.92 13.6 56.5 55 4.9 40.9 13.79 0.543
12:07 1015 29.97 844 24.92 13.6 56.4 58 5.5 41.9 13.77 0.542
12:08 1015 29.97 844 24.92 13.5 56.3 59 5.8 42.4 13.73 0.541
12:09 1015 29.97 844 24.92 13.5 56.3 64 6.8 44.3 13.76 0.542
12:10 1015 29.97 844 24.92 13.6 56.5 56 4.9 40.9 13.9 0.547
12:11 1015 29.97 844 24.92 13.6 56.5 56 5 40.9 13.73 0.541
12:12 1015 29.97 844 24.92 13.6 56.4 61 6.4 43.5 13.82 0.544
12:13 1015 29.97 844 24.92 13.6 56.5 62 6.4 43.6 13.89 0.547
12:14 1015 29.97 844 24.92 13.7 56.7 53 4.4 40 13.98 0.55
12:15 1015 29.97 844 24.92 13.8 56.8 54 4.7 40.4 14.05 0.553
12:16 1015 29.97 844 24.92 13.9 57.1 58 5.8 42.4 14.17 0.558
12:17 1015 29.97 844 24.92 14 57.3 60 6.4 43.5 14.31 0.563
12:18 1015 29.97 844 24.92 14.2 57.5 56 5.5 41.9 14.37 0.566
12:19 1015 29.97 844 24.92 14.3 57.7 57 5.8 42.4 14.52 0.572
12:20 1015 29.97 844 24.92 14.4 58 58 6.3 43.3 14.7 0.579
12:21 1015 29.97 844 24.92 14.5 58.1 50 4.3 39.8 14.74 0.58
12:22 1015 29.97 844 24.92 14.4 58 53 5 41 14.55 0.573
12:23 1015 29.97 844 24.92 14.3 57.8 53 4.9 40.9 14.42 0.568
12:24 1015 29.97 844 24.92 14.2 57.6 51 4.4 40 14.28 0.562
12:25 1015 29.97 844 24.92 14.1 57.4 53 4.7 40.4 14.25 0.561
12:26 1015 29.97 844 24.92 14.1 57.4 55 5.2 41.3 14.33 0.564
12:27 1015 29.97 844 24.92 14.2 57.5 51 4.2 39.6 14.3 0.563
12:28 1015 29.97 844 24.92 14.1 57.4 53 4.8 40.6 14.29 0.563
12:29 1015 29.97 844 24.92 14.2 57.5 49 3.7 38.7 14.28 0.562
12:30 1015 29.97 844 24.92 14.2 57.6 48 3.3 37.9 14.3 0.563
12:31 1015 29.97 844 24.92 14.3 57.7 54 5.3 41.6 14.39 0.567
12:32 1015 29.97 844 24.92 14.4 57.9 58 6.3 43.4 14.55 0.573
12:33 1015 29.97 844 24.92 14.5 58 51 4.6 40.3 14.66 0.577
12:34 1015 29.97 844 24.92 14.5 58 50 4.2 39.6 14.61 0.575
12:35 1015 29.97 844 24.92 14.5 58.1 51 4.4 40 14.67 0.578
12:36 1015 29.97 844 24.92 14.6 58.2 52 5 40.9 14.78 0.582
12:37 1015 29.97 844 24.92 14.6 58.3 55 5.8 42.4 14.75 0.581
12:38 1015 29.97 844 24.92 14.6 58.3 52 5 41 14.7 0.579
12:39 1015 29.97 844 24.92 14.7 58.4 55 5.9 42.6 14.8 0.583
12:40 1015 29.97 844 24.92 14.7 58.5 54 5.7 42.3 14.96 0.589
12:41 1015 29.97 844 24.92 14.8 58.7 52 5.2 41.3 15.02 0.591
12:42 1015 29.97 844 24.92 14.8 58.7 51 4.9 40.9 15.03 0.592
12:43 1015 29.97 844 24.92 14.9 58.9 54 5.7 42.3 15.15 0.596
12:44 1015 29.97 844 24.92 15 59 52 5.3 41.5 15.2 0.598
12:45 1015 29.97 844 24.92 15.1 59.1 51 5 41 15.29 0.602
12:46 1015 29.97 844 24.92 15.2 59.3 47 4.1 39.3 15.36 0.605
12:47 1015 29.97 844 24.92 15.1 59.1 52 5.5 41.8 15.2 0.598
12:48 1014 29.94 844 24.92 15 59 51 5 41.1 15.22 0.599
12:49 1014 29.94 844 24.92 15.1 59.1 49 4.7 40.4 15.33 0.604
12:50 1014 29.94 844 24.92 15.1 59.1 48 4.3 39.8 15.29 0.602
12:51 1014 29.94 844 24.92 15 59 49 4.3 39.8 15.15 0.596
12:52 1014 29.94 844 24.92 14.8 58.7 46 3.5 38.2 14.92 0.587
12:53 1014 29.94 844 24.92 14.6 58.3 53 5.2 41.3 14.83 0.584
12:54 1014 29.94 844 24.92 14.6 58.3 51 4.6 40.3 14.85 0.585
12:55 1014 29.94 844 24.92 14.6 58.3 50 4.4 39.9 14.85 0.585
12:56 1014 29.94 844 24.92 14.6 58.3 50 4.4 40 14.87 0.585
12:57 1014 29.94 844 24.92 14.6 58.3 50 4.5 40.1 14.8 0.583
12:58 1014 29.94 844 24.92 14.6 58.3 48 3.9 39 14.75 0.581
12:59 1014 29.94 844 24.92 14.6 58.2 45 3 37.4 14.68 0.578
13:00 1014 29.94 844 24.92 14.5 58 50 4.1 39.4 14.62 0.576
13:01 1014 29.94 844 24.92 14.5 58 48 3.6 38.4 14.66 0.577
13:02 1014 29.94 844 24.92 14.5 58.1 54 5.4 41.7 14.63 0.576
13:03 1014 29.94 844 24.92 14.5 58 52 4.7 40.4 14.68 0.578
13:04 1014 29.94 843 24.89 14.5 58.1 52 4.8 40.7 14.72 0.58
13:05 1014 29.94 843 24.89 14.5 58.1 48 3.7 38.7 14.76 0.581
13:06 1014 29.94 843 24.89 14.7 58.4 48 3.7 38.7 14.91 0.587
13:07 1014 29.94 843 24.89 14.8 58.7 53 5.3 41.5 15.03 0.592
13:08 1014 29.94 843 24.89 14.9 58.9 47 3.8 38.9 15.13 0.596
13:09 1014 29.94 843 24.89 15.1 59.1 47 3.9 39.1 15.25 0.6
13:10 1014 29.94 843 24.89 15.1 59.2 53 5.8 42.5 15.27 0.601
13:11 1014 29.94 843 24.89 15.2 59.3 46 3.8 38.9 15.35 0.604
13:12 1014 29.94 843 24.89 15.2 59.4 54 6 42.8 15.43 0.607
13:13 1014 29.94 843 24.89 15.3 59.5 48 4.5 40.1 15.48 0.609
13:14 1014 29.94 843 24.89 15.3 59.6 48 4.4 40 15.49 0.61
13:15 1014 29.94 843 24.89 15.4 59.6 45 3.7 38.6 15.52 0.611
13:16 1014 29.94 843 24.89 15.4 59.8 44 3.4 38.2 15.56 0.613
13:17 1014 29.94 843 24.89 15.5 59.8 49 4.8 40.6 15.6 0.614
13:18 1014 29.94 843 24.89 15.5 59.8 44 3.3 38 15.64 0.616
13:19 1014 29.94 843 24.89 15.5 59.8 44 3.3 37.9 15.63 0.615
13:20 1014 29.94 843 24.89 15.4 59.8 48 4.5 40 15.53 0.611
13:21 1014 29.94 843 24.89 15.5 59.8 48 4.5 40 15.53 0.611
13:22 1014 29.94 843 24.89 15.5 59.9 44 3.4 38.1 15.63 0.615
13:23 1014 29.94 843 24.89 15.6 60 43 3.2 37.7 15.72 0.619
13:24 1014 29.94 843 24.89 15.7 60.2 51 5.8 42.4 15.79 0.622
13:25 1014 29.94 843 24.89 15.8 60.4 46 4.4 40 15.92 0.627
13:26 1014 29.94 843 24.89 15.8 60.5 52 6.2 43.1 15.94 0.628
13:27 1014 29.94 843 24.89 15.9 60.6 44 3.8 38.9 16.1 0.634
13:28 1014 29.94 843 24.89 15.9 60.7 44 3.8 38.9 16.13 0.635
13:29 1014 29.94 843 24.89 15.8 60.5 44 3.7 38.6 15.94 0.628
13:30 1014 29.94 843 24.89 15.7 60.2 44 3.5 38.4 15.87 0.625
13:31 1014 29.94 843 24.89 15.6 60 49 5.1 41.2 15.78 0.621
13:32 1014 29.94 843 24.89 15.5 60 46 4 39.1 15.81 0.622
13:33 1014 29.94 843 24.89 15.6 60.2 49 5.1 41.2 15.86 0.624
13:34 1014 29.94 843 24.89 15.7 60.3 47 4.5 40.1 15.93 0.627
13:35 1014 29.94 843 24.89 15.8 60.4 45 3.9 39.1 15.98 0.629
13:36 1014 29.94 843 24.89 16 60.8 45 4.3 39.7 16.19 0.637
13:37 1014 29.94 843 24.89 16.2 61.2 48 5.3 41.6 16.41 0.646
13:38 1014 29.94 843 24.89 16.3 61.4 46 4.8 40.7 16.5 0.65
13:39 1014 29.94 843 24.89 16.3 61.4 45 4.4 39.9 16.49 0.649
13:40 1014 29.94 843 24.89 16.2 61.1 43 3.6 38.5 16.32 0.643
13:41 1014 29.94 843 24.89 16 60.9 45 4.3 39.8 16.25 0.64
13:42 1014 29.94 843 24.89 16 60.7 43 3.4 38.1 16.19 0.637
13:43 1014 29.94 843 24.89 16 60.7 40 2.4 36.4 16.22 0.639
13:44 1014 29.94 843 24.89 16 60.7 39 2.3 36.1 16.14 0.635
13:45 1014 29.94 843 24.89 15.9 60.6 43 3.3 37.9 16.09 0.633
13:46 1014 29.94 843 24.89 15.8 60.4 40 2.3 36.1 15.92 0.627
13:47 1014 29.94 843 24.89 15.7 60.2 42 3.1 37.5 15.84 0.624
13:48 1014 29.94 843 24.89 15.6 60.1 43 3.2 37.7 15.79 0.622
13:49 1014 29.94 843 24.89 15.6 60.1 46 4.1 39.5 15.81 0.622
13:50 1014 29.94 843 24.89 15.6 60.1 45 3.7 38.7 15.83 0.623
13:51 1014 29.94 843 24.89 15.7 60.2 42 2.9 37.1 15.87 0.625
13:52 1014 29.94 843 24.89 15.7 60.3 38 1.4 34.6 15.94 0.628
13:53 1014 29.94 843 24.89 15.8 60.4 42 2.9 37.3 16.01 0.63
13:54 1014 29.94 843 24.89 15.9 60.6 39 2 35.6 16.06 0.632
13:55 1014 29.94 843 24.89 16 60.7 41 2.8 37 16.16 0.636
13:56 1014 29.94 843 24.89 16.2 61.1 42 3.3 38 16.41 0.646
13:57 1014 29.94 843 24.89 16.4 61.5 36 1.3 34.3 16.67 0.656
13:58 1014 29.94 843 24.89 16.6 61.9 37 1.8 35.3 16.91 0.666
13:59 1014 29.94 843 24.89 16.8 62.3 42 3.8 38.8 17.08 0.672
14:00 1014 29.94 843 24.89 17 62.6 44 4.7 40.4 17.29 0.681
14:01 1014 29.94 843 24.89 17.1 62.8 40 3.6 38.5 17.46 0.687
14:02 1014 29.94 843 24.89 17.2 63 36 2.2 36 17.49 0.689
14:03 1014 29.94 843 24.89 17.2 62.9 37 2.4 36.3 17.44 0.687
14:04 1014 29.94 843 24.89 17.2 62.9 42 4.4 39.8 17.34 0.683
14:05 1014 29.94 843 24.89 17 62.7 40 3.3 37.9 17.23 0.678
14:06 1014 29.94 843 24.89 16.9 62.4 43 4.3 39.7 17.09 0.673
14:07 1014 29.94 843 24.89 16.9 62.4 42 4.1 39.4 17.02 0.67
14:08 1014 29.94 843 24.89 16.9 62.4 35 1.3 34.4 17.07 0.672
14:09 1014 29.94 843 24.89 16.9 62.5 36 1.7 35.1 17.07 0.672
14:10 1014 29.94 843 24.89 16.9 62.3 37 2.4 36.3 17.03 0.67
14:11 1014 29.94 843 24.89 16.9 62.4 39 2.8 37.1 17.06 0.672
14:12 1014 29.94 843 24.89 16.9 62.3 35 1.2 34.2 16.99 0.669
14:13 1013 29.91 843 24.89 16.8 62.2 37 2.2 36 16.86 0.664
14:14 1013 29.91 843 24.89 16.8 62.2 37 2.2 35.9 16.91 0.666
14:15 1013 29.91 843 24.89 16.8 62.3 36 1.9 35.3 17.07 0.672
14:16 1013 29.91 843 24.89 16.8 62.3 33 0.6 33 17.09 0.673
14:17 1013 29.91 843 24.89 16.7 62 33 0.6 33.1 16.92 0.666
14:18 1013 29.91 843 24.89 16.6 61.9 33 0.4 32.7 16.9 0.665
14:19 1013 29.91 843 24.89 16.6 61.9 35 1.2 34.2 16.91 0.666
14:20 1013 29.91 843 24.89 16.7 62 42 3.9 39.1 16.95 0.667
14:21 1013 29.91 843 24.89 16.6 62 39 2.7 36.9 16.92 0.666
14:22 1013 29.91 843 24.89 16.6 61.9 41 3.6 38.5 16.84 0.663
14:23 1013 29.91 843 24.89 16.5 61.7 44 4.4 39.9 16.76 0.66
14:24 1013 29.91 843 24.89 16.5 61.6 38 2.3 36.2 16.67 0.656
14:25 1013 29.91 843 24.89 16.3 61.4 36 1.4 34.5 16.55 0.652
14:26 1013 29.91 843 24.89 16.2 61.1 40 2.9 37.1 16.43 0.647
14:27 1013 29.91 843 24.89 16.1 61.1 41 2.9 37.1 16.34 0.643
14:28 1013 29.91 843 24.89 16.1 60.9 41 3 37.4 16.28 0.641
14:29 1013 29.91 843 24.89 16.1 61 37 1.4 34.5 16.26 0.64
14:30 1013 29.91 843 24.89 16.1 61 42 3.4 38.2 16.31 0.642
14:31 1013 29.91 843 24.89 16.2 61.2 36 1.2 34.2 16.44 0.647
14:32 1013 29.91 842 24.86 16.3 61.3 39 2.5 36.4 16.51 0.65
14:33 1013 29.91 842 24.86 16.4 61.5 39 2.6 36.7 16.65 0.656
14:34 1013 29.91 842 24.86 16.6 61.8 45 4.8 40.6 16.78 0.661
14:35 1013 29.91 842 24.86 16.6 61.9 38 2.3 36.1 16.84 0.663
14:36 1013 29.91 842 24.86 16.6 61.9 44 4.4 40 16.83 0.663
14:37 1013 29.91 842 24.86 16.6 61.8 36 1.5 34.7 16.75 0.659
14:38 1013 29.91 842 24.86 16.5 61.6 41 3.3 38 16.7 0.657
14:39 1013 29.91 842 24.86 16.4 61.6 40 2.8 37 16.62 0.654
14:40 1013 29.91 842 24.86 16.3 61.3 37 1.7 35 16.43 0.647
14:41 1013 29.91 842 24.86 16.1 61 40 2.7 36.8 16.3 0.642
14:42 1013 29.91 842 24.86 16 60.8 37 1.6 34.9 16.23 0.639
14:43 1013 29.91 842 24.86 15.9 60.7 39 2 35.6 16.13 0.635
14:44 1013 29.91 842 24.86 15.9 60.7 38 1.8 35.3 16.09 0.633
14:45 1013 29.91 842 24.86 15.9 60.5 39 2 35.6 16.05 0.632
14:46 1013 29.91 842 24.86 15.9 60.6 43 3.4 38.1 16.08 0.633
14:47 1013 29.91 842 24.86 16 60.7 41 2.7 36.9 16.19 0.637
14:48 1013 29.91 842 24.86 16 60.7 40 2.3 36.2 16.18 0.637
14:49 1013 29.91 842 24.86 16 60.8 45 4.3 39.8 16.24 0.639
14:50 1013 29.91 842 24.86 16 60.9 41 2.8 37.1 16.27 0.641
14:51 1013 29.91 842 24.86 16 60.8 42 3.4 38.1 16.31 0.642
14:52 1013 29.91 842 24.86 16.1 60.9 37 1.7 35 16.38 0.645
14:53 1013 29.91 842 24.86 16.2 61.2 40 2.7 36.8 16.38 0.645
14:54 1013 29.91 842 24.86 16.3 61.3 45 4.4 39.9 16.54 0.651
14:55 1013 29.91 842 24.86 16.5 61.7 46 4.8 40.7 16.77 0.66
14:56 1013 29.91 842 24.86 16.6 61.9 41 3.4 38.1 16.87 0.664
14:57 1013 29.91 842 24.86 16.6 61.9 39 2.7 36.9 16.87 0.664
14:58 1013 29.91 842 24.86 16.6 61.9 39 2.6 36.7 16.8 0.661
14:59 1013 29.91 842 24.86 16.6 61.8 40 3.2 37.7 16.8 0.661
15:00 1013 29.91 842 24.86 16.6 61.9 36 1.4 34.5 16.77 0.66
15:01 1013 29.91 842 24.86 16.6 61.8 44 4.4 39.9 16.77 0.66
15:02 1013 29.91 842 24.86 16.6 61.8 35 1.1 33.9 16.78 0.661
15:03 1013 29.91 842 24.86 16.6 61.8 36 1.4 34.4 16.68 0.657
15:04 1013 29.91 842 24.86 16.5 61.6 38 2.1 35.8 16.62 0.654
15:05 1013 29.91 842 24.86 16.3 61.4 35 0.9 33.6 16.57 0.652
15:06 1013 29.91 842 24.86 16.3 61.3 39 2.5 36.4 16.49 0.649
15:07 1013 29.91 842 24.86 16.2 61.2 36 1.4 34.5 16.44 0.647
15:08 1013 29.91 842 24.86 16.2 61.2 39 2.3 36.2 16.42 0.646
15:09 1013 29.91 842 24.86 16.2 61.2 34 0.6 33 16.42 0.646
15:10 1013 29.91 842 24.86 16.2 61.1 42 3.2 37.8 16.39 0.645
15:11 1013 29.91 842 24.86 16.1 61.1 36 1.3 34.3 16.37 0.644
15:12 1013 29.91 842 24.86 16.1 61 37 1.6 34.9 16.34 0.643
15:13 1013 29.91 842 24.86 16.1 60.9 38 1.8 35.2 16.25 0.64
15:14 1013 29.91 842 24.86 15.9 60.7 33 -0.1 31.9 16.16 0.636
15:15 1013 29.91 842 24.86 15.8 60.5 39 1.9 35.4 16.06 0.632
15:16 1013 29.91 842 24.86 15.8 60.4 37 1.4 34.5 16.05 0.632
15:17 1013 29.91 842 24.86 15.7 60.3 41 2.7 36.8 16.01 0.63
15:18 1013 29.91 842 24.86 15.7 60.2 37 1.2 34.2 15.96 0.628
15:19 1013 29.91 842 24.86 15.6 60.1 40 2.3 36.2 15.93 0.627
15:20 1013 29.91 842 24.86 15.6 60.1 37 1.2 34.2 15.92 0.627
15:21 1013 29.91 842 24.86 15.6 60.1 39 1.9 35.4 15.92 0.627
15:22 1013 29.91 842 24.86 15.6 60.1 42 2.7 36.9 15.92 0.627
15:23 1013 29.91 842 24.86 15.6 60.1 37 1.1 34 15.93 0.627
15:24 1013 29.91 842 24.86 15.6 60.1 42 2.7 36.8 15.92 0.627
15:25 1013 29.91 842 24.86 15.6 60.1 41 2.4 36.3 15.89 0.626
15:26 1013 29.91 842 24.86 15.6 60.1 38 1.4 34.6 15.89 0.626
15:27 1013 29.91 842 24.86 15.7 60.2 40 2.1 35.8 15.95 0.628
15:28 1013 29.91 842 24.86 15.7 60.2 40 2.4 36.3 15.99 0.63
15:29 1013 29.91 842 24.86 15.7 60.3 43 3.2 37.7 16.04 0.631
15:30 1013 29.91 842 24.86 15.7 60.3 41 2.4 36.4 15.98 0.629
15:31 1013 29.91 842 24.86 15.7 60.2 39 1.9 35.4 15.93 0.627
15:32 1013 29.91 842 24.86 15.6 60.1 38 1.3 34.3 15.86 0.624
15:33 1013 29.91 842 24.86 15.5 59.9 39 1.9 35.3 15.81 0.622
15:34 1013 29.91 842 24.86 15.5 60 43 3.2 37.8 15.84 0.624
15:35 1013 29.91 842 24.86 15.5 59.9 47 4.3 39.8 15.79 0.622
15:36 1013 29.91 842 24.86 15.4 59.8 44 3.2 37.8 15.74 0.62
15:37 1013 29.91 842 24.86 15.4 59.7 43 2.9 37.2 15.69 0.618
15:38 1013 29.91 842 24.86 15.4 59.7 41 2.2 35.9 15.62 0.615
15:39 1013 29.91 842 24.86 15.4 59.6 44 3.3 37.9 15.62 0.615
15:40 1013 29.91 842 24.86 15.3 59.6 41 2.2 36 15.59 0.614
15:41 1013 29.91 842 24.86 15.3 59.5 42 2.5 36.5 15.53 0.611
15:42 1013 29.91 842 24.86 15.3 59.5 40 1.8 35.3 15.54 0.612
15:43 1013 29.91 842 24.86 15.3 59.5 43 3 37.4 15.53 0.611
15:44 1013 29.91 842 24.86 15.2 59.4 40 1.7 35.1 15.49 0.61
15:45 1013 29.91 842 24.86 15.2 59.4 43 2.7 36.9 15.5 0.61
15:46 1013 29.91 842 24.86 15.2 59.4 46 3.6 38.5 15.5 0.61
15:47 1013 29.91 842 24.86 15.2 59.3 46 3.7 38.6 15.48 0.609
15:48 1013 29.91 842 24.86 15.2 59.3 43 2.9 37.3 15.45 0.608
15:49 1013 29.91 842 24.86 15.1 59.2 42 2.3 36.2 15.44 0.608
15:50 1013 29.91 842 24.86 15.1 59.2 41 1.9 35.4 15.4 0.606
15:51 1013 29.91 842 24.86 15.1 59.2 40 1.7 35.1 15.34 0.604
15:52 1013 29.91 842 24.86 15.1 59.2 42 2.5 36.5 15.37 0.605
15:53 1013 29.91 842 24.86 15.1 59.2 41 2.2 35.9 15.38 0.606
15:54 1013 29.91 842 24.86 15.1 59.1 47 3.8 38.9 15.37 0.605
15:55 1013 29.91 842 24.86 15.1 59.1 46 3.6 38.5 15.37 0.605
15:56 1013 29.91 842 24.86 15 59.1 44 3 37.3 15.33 0.604
15:57 1013 29.91 842 24.86 15 59.1 38 1 33.8 15.32 0.603
15:58 1013 29.91 842 24.86 15 59.1 43 2.8 37 15.33 0.604
15:59 1013 29.91 842 24.86 15.1 59.1 37 0.5 32.9 15.34 0.604
16:00 1013 29.91 842 24.86 15.1 59.2 44 2.9 37.2 15.38 0.606
16:01 1013 29.91 842 24.86 15.1 59.2 43 2.9 37.2 15.42 0.607
16:02 1013 29.91 842 24.86 15.1 59.2 44 3 37.5 15.4 0.606
16:03 1013 29.91 842 24.86 15.1 59.2 43 2.6 36.7 15.37 0.605
16:04 1013 29.91 842 24.86 15.1 59.2 44 2.9 37.3 15.42 0.607
16:05 1013 29.91 842 24.86 15.1 59.1 44 3.1 37.6 15.33 0.604
16:06 1013 29.91 842 24.86 15.1 59.1 46 3.5 38.3 15.36 0.605
16:07 1013 29.91 842 24.86 15.1 59.1 40 1.7 35 15.34 0.604
16:08 1013 29.91 842 24.86 15 59.1 43 2.5 36.6 15.37 0.605
16:09 1013 29.91 842 24.86 15.1 59.2 44 3 37.3 15.37 0.605
16:10 1013 29.91 842 24.86 15.1 59.2 40 1.9 35.4 15.46 0.609
16:11 1013 29.91 842 24.86 15.2 59.3 43 2.9 37.2 15.46 0.609
16:12 1013 29.91 842 24.86 15.1 59.1 36 0.1 32.2 15.48 0.609
16:13 1013 29.91 842 24.86 15.2 59.3 41 2.2 35.9 15.5 0.61
16:14 1013 29.91 842 24.86 15.2 59.4 41 2.2 36 15.6 0.614
16:15 1013 29.91 842 24.86 15.3 59.5 40 2 35.5 15.58 0.613
16:16 1013 29.91 842 24.86 15.2 59.4 39 1.6 34.9 15.55 0.612
16:17 1013 29.91 842 24.86 15.3 59.5 44 3.3 38 15.59 0.614
16:18 1013 29.91 842 24.86 15.3 59.5 41 2.1 35.8 15.57 0.613
16:19 1013 29.91 842 24.86 15.3 59.5 36 0.5 33 15.56 0.613
16:20 1013 29.91 842 24.86 15.3 59.5 47 4.1 39.4 15.63 0.615
16:21 1013 29.91 842 24.86 15.3 59.6 45 3.5 38.3 15.66 0.617
16:22 1013 29.91 842 24.86 15.3 59.6 45 3.7 38.7 15.69 0.618
16:23 1013 29.91 842 24.86 15.4 59.7 35 0.2 32.3 15.68 0.617
16:24 1013 29.91 842 24.86 15.4 59.7 38 1.1 34 15.65 0.616
16:25 1013 29.91 842 24.86 15.4 59.8 40 1.8 35.3 15.7 0.618
16:26 1013 29.91 842 24.86 15.5 59.8 44 3.3 37.9 15.73 0.619
16:27 1013 29.91 842 24.86 15.5 59.9 47 4.3 39.8 15.78 0.621
16:28 1013 29.91 842 24.86 15.5 59.9 47 4.2 39.5 15.78 0.621
16:29 1013 29.91 842 24.86 15.5 59.9 45 3.7 38.6 15.77 0.621
16:30 1013 29.91 842 24.86 15.5 59.8 42 2.8 37.1 15.77 0.621
16:31 1013 29.91 842 24.86 15.5 59.8 38 1.4 34.5 15.8 0.622
16:32 1013 29.91 842 24.86 15.4 59.8 35 0 32.1 15.76 0.62
16:33 1013 29.91 842 24.86 15.5 60 43 3.1 37.5 15.84 0.624
16:34 1013 29.91 842 24.86 15.5 60 40 2.3 36.1 15.91 0.626
16:35 1013 29.91 842 24.86 15.5 59.9 36 0.8 33.4 15.9 0.626
16:36 1013 29.91 842 24.86 15.5 59.9 40 2 35.7 15.93 0.627
16:37 1013 29.91 842 24.86 15.6 60 39 1.8 35.2 15.97 0.629
16:38 1013 29.91 842 24.86 15.6 60.1 40 2 35.6 16.03 0.631
16:39 1013 29.91 842 24.86 15.7 60.2 41 2.7 36.8 16.1 0.634
16:40 1013 29.91 842 24.86 15.7 60.3 39 2 35.5 16.13 0.635
16:41 1013 29.91 842 24.86 15.8 60.4 52 6 42.9 16.14 0.635
16:42 1013 29.91 842 24.86 15.8 60.5 45 3.9 39 16.21 0.638
16:43 1013 29.91 842 24.86 15.9 60.6 45 4 39.2 16.21 0.638
16:44 1013 29.91 842 24.86 15.9 60.6 49 5.3 41.5 16.27 0.641
16:45 1013 29.91 842 24.86 15.9 60.7 46 4.3 39.7 16.29 0.641
16:46 1013 29.91 842 24.86 16 60.7 43 3.5 38.4 16.23 0.639
16:47 1013 29.91 842 24.86 16 60.8 42 3.1 37.6 16.31 0.642
16:48 1013 29.91 842 24.86 16 60.9 41 2.9 37.2 16.3 0.642
16:49 1013 29.91 842 24.86 16.1 61 46 4.6 40.3 16.36 0.644
16:50 1013 29.91 842 24.86 16.1 61 38 2 35.5 16.38 0.645
16:51 1013 29.91 842 24.86 16.2 61.1 35 0.8 33.4 16.34 0.643
16:52 1012 29.88 842 24.86 16.2 61.1 37 1.4 34.5 16.45 0.648
16:53 1012 29.88 842 24.86 16.2 61.2 32 -0.3 31.4 16.49 0.649
16:54 1012 29.88 842 24.86 16.3 61.3 43 3.8 38.9 16.63 0.655
16:55 1012 29.88 842 24.86 16.3 61.4 32 -0.3 31.5 16.67 0.656
16:56 1012 29.88 842 24.86 16.4 61.4 33 0.1 32.1 16.68 0.657
16:57 1012 29.88 842 24.86 16.4 61.5 33 0.1 32.2 16.71 0.658
16:58 1012 29.88 842 24.86 16.4 61.5 39 2.7 36.8 16.79 0.661
16:59 1012 29.88 842 24.86 16.5 61.6 35 1.1 34 16.84 0.663
17:00 1012 29.88 842 24.86 16.5 61.8 40 3.2 37.7 16.94 0.667
17:01 1012 29.88 842 24.86 16.5 61.7 35 0.9 33.7 16.98 0.669
17:02 1012 29.88 842 24.86 16.5 61.7 38 2.2 36 16.93 0.667
17:03 1012 29.88 842 24.86 16.6 61.8 38 2.5 36.4 16.98 0.669
17:04 1012 29.88 842 24.86 16.6 61.9 40 3 37.3 17.05 0.671
17:05 1012 29.88 842 24.86 16.6 61.8 42 3.9 39 17.09 0.673
17:06 1012 29.88 842 24.86 16.6 61.9 44 4.2 39.6 17.11 0.674
17:07 1012 29.88 842 24.86 16.6 61.9 43 4.2 39.5 17.24 0.679
17:08 1012 29.88 842 24.86 16.6 61.9 40 3.2 37.7 17.25 0.679
17:09 1012 29.88 842 24.86 16.6 61.8 35 1.1 33.9 17.16 0.676
17:10 1012 29.88 842 24.86 16.5 61.8 45 4.6 40.3 17.16 0.676
17:11 1012 29.88 842 24.86 16.5 61.7 36 1.4 34.5 17.08 0.672
17:12 1012 29.88 842 24.86 16.4 61.6 35 0.9 33.6 16.9 0.665
17:13 1012 29.88 842 24.86 16.3 61.4 38 2.2 35.9 16.77 0.66
17:14 1012 29.88 842 24.86 16.3 61.3 38 1.9 35.4 16.72 0.658
17:15 1012 29.88 842 24.86 16.2 61.1 38 1.8 35.2 16.58 0.653
17:16 1012 29.88 842 24.86 16.1 61 33 0.1 32.3 16.5 0.65
17:17 1012 29.88 842 24.86 16 60.9 36 1 33.9 16.49 0.649
17:18 1012 29.88 842 24.86 16 60.9 40 2.6 36.8 16.41 0.646
17:19 1012 29.88 842 24.86 16 60.8 40 2.4 36.4 16.41 0.646
17:20 1012 29.88 841 24.83 16 60.8 40 2.4 36.4 16.39 0.645
17:21 1012 29.88 841 24.83 16 60.8 41 2.9 37.2 16.4 0.646
17:22 1012 29.88 841 24.83 16 60.8 40 2.4 36.4 16.34 0.643
17:23 1012 29.88 841 24.83 16 60.7 43 3.5 38.3 16.31 0.642
17:24 1012 29.88 841 24.83 15.9 60.7 41 2.8 37 16.38 0.645
17:25 1012 29.88 841 24.83 15.9 60.7 39 2.2 35.9 16.38 0.645
17:26 1012 29.88 841 24.83 15.9 60.6 39 2 35.6 16.36 0.644
17:27 1012 29.88 841 24.83 15.9 60.7 40 2.3 36.1 16.35 0.644
17:28 1012 29.88 841 24.83 16 60.7 39 2 35.7 16.4 0.646
17:29 1012 29.88 841 24.83 16 60.8 41 2.7 36.8 16.44 0.647
17:30 1012 29.88 841 24.83 16 60.9 38 1.9 35.4 16.51 0.65
17:31 1012 29.88 841 24.83 16.1 61.1 36 1 33.8 16.53 0.651
17:32 1012 29.88 841 24.83 16.2 61.2 40 2.6 36.7 16.6 0.654
17:33 1012 29.88 841 24.83 16.3 61.3 37 1.6 34.8 16.76 0.66
17:34 1012 29.88 841 24.83 16.4 61.5 41 3.1 37.6 16.83 0.663
17:35 1012 29.88 841 24.83 16.5 61.6 37 1.9 35.4 16.91 0.666
17:36 1012 29.88 841 24.83 16.5 61.6 38 2.3 36.2 16.93 0.667
17:37 1012 29.88 841 24.83 16.5 61.6 43 4 39.2 16.93 0.667
17:38 1012 29.88 841 24.83 16.4 61.5 35 1.2 34.1 16.91 0.666
17:39 1012 29.88 841 24.83 16.3 61.4 40 2.9 37.2 16.9 0.665
17:40 1012 29.88 841 24.83 16.4 61.4 45 4.4 39.9 16.96 0.668
17:41 1012 29.88 841 24.83 16.4 61.5 36 1.6 34.8 17.01 0.67
17:42 1012 29.88 841 24.83 16.5 61.6 38 2.2 36 16.99 0.669
17:43 1012 29.88 841 24.83 16.5 61.7 42 3.8 38.8 17.03 0.67
17:44 1012 29.88 841 24.83 16.6 61.8 43 3.9 39.1 17.11 0.674
17:45 1012 29.88 841 24.83 16.7 62 40 3 37.3 17.11 0.674
17:46 1012 29.88 841 24.83 16.6 62 38 2.5 36.6 17.07 0.672
17:47 1012 29.88 841 24.83 16.6 61.8 37 1.9 35.3 16.97 0.668
17:48 1012 29.88 841 24.83 16.5 61.7 40 2.8 37.1 16.89 0.665
17:49 1012 29.88 841 24.83 16.4 61.5 40 2.8 37.1 16.87 0.664
17:50 1012 29.88 841 24.83 16.3 61.4 40 2.8 37.1 16.85 0.663
17:51 1012 29.88 841 24.83 16.4 61.5 40 2.9 37.2 16.87 0.664
17:52 1012 29.88 841 24.83 16.4 61.4 38 2.2 35.9 16.91 0.666
17:53 1012 29.88 841 24.83 16.4 61.5 36 1.3 34.3 16.87 0.664
17:54 1012 29.88 841 24.83 16.4 61.5 36 1.5 34.6 16.8 0.661
17:55 1012 29.88 841 24.83 16.4 61.5 39 2.5 36.5 16.75 0.659
17:56 1012 29.88 841 24.83 16.3 61.3 41 3 37.3 16.7 0.657
17:57 1012 29.88 841 24.83 16.2 61.2 40 2.6 36.6 16.66 0.656
17:58 1012 29.88 841 24.83 16.2 61.1 41 3.1 37.6 16.64 0.655
17:59 1012 29.88 841 24.83 16.1 61 38 1.8 35.2 16.63 0.655
18:00 1012 29.88 841 24.83 16.1 60.9 41 2.8 37.1 16.54 0.651
18:01 1012 29.88 841 24.83 16 60.8 42 3.3 38 16.5 0.65
18:02 1012 29.88 841 24.83 16 60.7 41 2.7 36.8 16.44 0.647
18:03 1012 29.88 841 24.83 15.9 60.7 40 2.6 36.6 16.4 0.646
18:04 1012 29.88 841 24.83 15.9 60.7 40 2.5 36.5 16.41 0.646
18:05 1012 29.88 841 24.83 16 60.7 39 2.1 35.7 16.43 0.647
18:06 1012 29.88 841 24.83 16 60.8 41 2.9 37.3 16.44 0.647
18:07 1012 29.88 841 24.83 16 60.9 43 3.5 38.2 16.47 0.648
18:08 1012 29.88 841 24.83 16 60.8 38 1.7 35 16.41 0.646
18:09 1012 29.88 841 24.83 16 60.8 44 3.7 38.7 16.44 0.647
18:10 1012 29.88 841 24.83 16 60.7 41 2.8 37.1 16.4 0.646
18:11 1012 29.88 841 24.83 16 60.7 42 3.1 37.6 16.32 0.643
18:12 1012 29.88 841 24.83 15.9 60.5 41 2.8 37 16.23 0.639
18:13 1012 29.88 841 24.83 15.8 60.5 46 4.3 39.8 16.15 0.636
18:14 1012 29.88 841 24.83 15.8 60.4 43 3.2 37.7 16.13 0.635
18:15 1012 29.88 841 24.83 15.8 60.4 45 3.8 38.9 16.11 0.634
18:16 1012 29.88 841 24.83 15.8 60.4 43 3.3 37.9 16.14 0.635
18:17 1012 29.88 841 24.83 15.8 60.4 42 3.1 37.6 16.15 0.636
18:18 1012 29.88 841 24.83 15.8 60.4 43 3.3 37.9 16.12 0.635
18:19 1012 29.88 841 24.83 15.8 60.5 42 2.9 37.2 16.13 0.635
18:20 1012 29.88 841 24.83 15.7 60.3 45 3.9 39 16.11 0.634
18:21 1012 29.88 841 24.83 15.7 60.3 44 3.5 38.4 16.09 0.633
18:22 1012 29.88 841 24.83 15.7 60.3 44 3.5 38.3 16.08 0.633
18:23 1012 29.88 841 24.83 15.7 60.2 41 2.6 36.6 16 0.63
18:24 1012 29.88 841 24.83 15.6 60.2 44 3.6 38.4 15.98 0.629
18:25 1012 29.88 841 24.83 15.7 60.2 42 2.9 37.3 15.98 0.629
18:26 1012 29.88 841 24.83 15.6 60.1 46 4.2 39.6 15.92 0.627
18:27 1012 29.88 841 24.83 15.5 59.9 45 3.9 39 15.82 0.623
18:28 1012 29.88 841 24.83 15.4 59.7 44 3.3 37.9 15.73 0.619
18:29 1012 29.88 841 24.83 15.3 59.6 46 3.8 38.8 15.67 0.617
18:30 1012 29.88 841 24.83 15.2 59.4 43 2.9 37.3 15.56 0.613
18:31 1012 29.88 841 24.83 15.1 59.2 45 3.3 38 15.5 0.61
18:32 1012 29.88 841 24.83 15.1 59.1 44 3 37.4 15.4 0.606
18:33 1012 29.88 841 24.83 15 58.9 42 2.3 36.1 15.34 0.604
18:34 1012 29.88 841 24.83 14.9 58.8 42 2.3 36.1 15.3 0.602
18:35 1012 29.88 841 24.83 14.9 58.9 41 1.8 35.3 15.29 0.602
18:36 1012 29.88 841 24.83 14.9 58.8 43 2.5 36.5 15.29 0.602
18:37 1012 29.88 841 24.83 14.9 58.8 42 2.1 35.7 15.18 0.598
18:38 1012 29.88 841 24.83 14.8 58.6 42 2.1 35.7 15.15 0.596
18:39 1012 29.88 841 24.83 14.8 58.6 45 3 37.4 15.17 0.597
18:40 1012 29.88 841 24.83 14.7 58.5 42 2 35.6 15.07 0.593
18:41 1012 29.88 841 24.83 14.7 58.4 44 2.5 36.6 15.05 0.593
18:42 1012 29.88 841 24.83 14.6 58.4 44 2.6 36.6 15.04 0.592
18:43 1012 29.88 841 24.83 14.6 58.3 45 2.9 37.2 14.99 0.59
18:44 1012 29.88 841 24.83 14.5 58.2 44 2.4 36.3 14.94 0.588
18:45 1012 29.88 841 24.83 14.5 58.1 43 2.1 35.8 14.86 0.585
18:46 1012 29.88 841 24.83 14.5 58 45 2.7 36.9 14.85 0.585
18:47 1012 29.88 841 24.83 14.5 58 44 2.5 36.5 14.8 0.583
18:48 1012 29.88 841 24.83 14.4 58 44 2.6 36.6 14.82 0.583
18:49 1012 29.88 841 24.83 14.4 57.9 46 2.9 37.2 14.73 0.58
18:50 1012 29.88 841 24.83 14.4 57.8 45 2.6 36.7 14.75 0.581
18:51 1012 29.88 841 24.83 14.4 57.9 46 2.9 37.2 14.76 0.581
18:52 1012 29.88 841 24.83 14.3 57.8 46 3 37.4 14.69 0.578
18:53 1012 29.88 841 24.83 14.3 57.7 47 3.1 37.6 14.57 0.574
18:54 1012 29.88 841 24.83 14.2 57.5 45 2.4 36.2 14.52 0.572
18:55 1012 29.88 841 24.83 14.2 57.6 46 2.9 37.2 14.57 0.574
18:56 1012 29.88 841 24.83 14.2 57.6 44 2.3 36.2 14.56 0.573
18:57 1012 29.88 841 24.83 14.2 57.6 44 2.4 36.3 14.62 0.576
18:58 1012 29.88 841 24.83 14.3 57.7 44 2.2 35.9 14.62 0.576
18:59 1012 29.88 841 24.83 14.2 57.6 45 2.5 36.5 14.58 0.574
19:00 1012 29.88 841 24.83 14.2 57.6 43 2 35.6 14.58 0.574
19:01 1012 29.88 841 24.83 14.3 57.7 44 2.2 35.9 14.62 0.576
19:02 1012 29.88 841 24.83 14.3 57.8 45 2.5 36.4 14.66 0.577
19:03 1012 29.88 841 24.83 14.3 57.7 43 1.8 35.3 14.62 0.576
19:04 1012 29.88 841 24.83 14.3 57.7 43 1.9 35.4 14.63 0.576
19:05 1012 29.88 841 24.83 14.3 57.7 42 1.6 34.9 14.59 0.574
19:06 1012 29.88 841 24.83 14.3 57.7 43 2 35.6 14.6 0.575
19:07 1012 29.88 841 24.83 14.2 57.6 44 2.2 35.9 14.65 0.577
19:08 1012 29.88 841 24.83 14.2 57.6 43 2 35.7 14.62 0.576
19:09 1012 29.88 841 24.83 14.2 57.5 44 2.1 35.8 14.55 0.573
19:10 1012 29.88 841 24.83 14.1 57.4 43 1.8 35.2 14.47 0.57
19:11 1012 29.88 842 24.86 14.1 57.4 44 2.2 36 14.47 0.57
19:12 1012 29.88 841 24.83 14 57.2 45 2.3 36.2 14.37 0.566
19:13 1012 29.88 841 24.83 13.9 57.1 45 2.2 36 14.25 0.561
19:14 1012 29.88 841 24.83 13.9 56.9 45 2.3 36.1 14.21 0.559
19:15 1012 29.88 842 24.86 13.8 56.9 45 2.3 36.1 14.18 0.558
19:16 1012 29.88 841 24.83 13.8 56.8 43 1.7 35 14.19 0.559
19:17 1012 29.88 842 24.86 13.9 57 44 1.9 35.3 14.28 0.562
19:18 1012 29.88 841 24.83 13.9 57 46 2.5 36.4 14.29 0.563
19:19 1012 29.88 842 24.86 13.8 56.9 46 2.6 36.7 14.23 0.56
19:20 1012 29.88 841 24.83 13.8 56.8 47 2.7 36.9 14.18 0.558
19:21 1012 29.88 842 24.86 13.7 56.7 48 2.9 37.2 14.12 0.556
19:22 1012 29.88 842 24.86 13.7 56.6 49 3.3 37.9 14.08 0.554
19:23 1012 29.88 842 24.86 13.7 56.6 50 3.4 38.1 14.02 0.552
19:24 1012 29.88 842 24.86 13.6 56.5 51 3.7 38.6 13.99 0.551
19:25 1012 29.88 842 24.86 13.7 56.6 51 3.8 38.9 14.06 0.554
19:26 1012 29.88 842 24.86 13.7 56.6 52 4.1 39.4 14.02 0.552
19:27 1012 29.88 842 24.86 13.6 56.5 53 4.3 39.8 14 0.551
19:28 1012 29.88 842 24.86 13.6 56.5 54 4.6 40.3 14.03 0.552
19:29 1012 29.88 842 24.86 13.6 56.5 55 4.8 40.6 14.01 0.552
19:30 1012 29.88 842 24.86 13.6 56.4 56 5 41 13.92 0.548
19:31 1012 29.88 842 24.86 13.5 56.3 55 4.8 40.6 13.87 0.546
19:32 1012 29.88 842 24.86 13.6 56.4 56 4.9 40.9 13.89 0.547
19:33 1012 29.88 842 24.86 13.5 56.3 56 4.9 40.8 13.9 0.547
19:34 1012 29.88 842 24.86 13.5 56.4 56 5 41 13.94 0.549
19:35 1012 29.88 842 24.86 13.6 56.4 56 5.1 41.1 13.98 0.55
19:36 1012 29.88 842 24.86 13.5 56.4 57 5.4 41.7 13.9 0.547
19:37 1012 29.88 842 24.86 13.5 56.3 58 5.3 41.6 13.86 0.546
19:38 1012 29.88 842 24.86 13.5 56.2 57 5.2 41.4 13.82 0.544
19:39 1012 29.88 842 24.86 13.4 56.2 57 5.2 41.3 13.87 0.546
19:40 1012 29.88 842 24.86 13.4 56.2 58 5.3 41.5 13.83 0.544
19:41 1012 29.88 842 24.86 13.4 56.2 58 5.5 41.8 13.75 0.541
19:42 1012 29.88 842 24.86 13.3 56 59 5.5 41.9 13.72 0.54
19:43 1012 29.88 842 24.86 13.4 56 59 5.5 41.9 13.72 0.54
19:44 1012 29.88 842 24.86 13.3 55.9 59 5.5 42 13.64 0.537
19:45 1012 29.88 842 24.86 13.2 55.8 60 5.6 42.2 13.59 0.535
19:46 1012 29.88 842 24.86 13.2 55.7 60 5.5 42 13.54 0.533
19:47 1012 29.88 842 24.86 13.2 55.7 60 5.7 42.3 13.54 0.533
19:48 1013 29.91 842 24.86 13.1 55.6 60 5.7 42.2 13.48 0.531
19:49 1013 29.91 842 24.86 13.1 55.6 61 5.8 42.4 13.46 0.53
19:50 1013 29.91 842 24.86 13 55.4 61 5.8 42.4 13.4 0.528
19:51 1012 29.88 842 24.86 13 55.4 62 5.8 42.5 13.34 0.525
19:52 1013 29.91 842 24.86 13 55.4 62 5.9 42.5 13.39 0.527
19:53 1013 29.91 842 24.86 13 55.4 62 5.9 42.6 13.39 0.527
19:54 1013 29.91 842 24.86 13 55.4 61 5.8 42.4 13.38 0.527
19:55 1012 29.88 842 24.86 13 55.4 62 5.8 42.5 13.37 0.526
19:56 1013 29.91 842 24.86 13 55.3 62 5.9 42.6 13.35 0.526
19:57 1013 29.91 842 24.86 12.9 55.3 62 6 42.7 13.29 0.523
19:58 1013 29.91 842 24.86 12.9 55.2 62 5.9 42.6 13.24 0.521
19:59 1013 29.91 842 24.86 12.9 55.2 62 5.8 42.5 13.28 0.523
20:00 1013 29.91 842 24.86 12.9 55.2 62 5.8 42.4 13.29 0.523
20:01 1013 29.91 842 24.86 12.9 55.3 62 5.9 42.7 13.27 0.522
20:02 1013 29.91 842 24.86 12.9 55.2 62 5.9 42.7 13.25 0.522
20:03 1013 29.91 842 24.86 12.9 55.2 63 6.1 42.9 13.22 0.52
20:04 1013 29.91 842 24.86 12.8 55 64 6.1 43 13.14 0.517
20:05 1013 29.91 842 24.86 12.7 54.9 63 6 42.8 13.08 0.515
20:06 1013 29.91 842 24.86 12.7 54.9 63 5.8 42.5 13.1 0.516
20:07 1013 29.91 842 24.86 12.7 54.9 63 5.9 42.7 13.1 0.516
20:08 1013 29.91 842 24.86 12.7 54.9 64 6.1 42.9 13.06 0.514
20:09 1013 29.91 842 24.86 12.7 54.8 63 6 42.8 13.04 0.513
20:10 1013 29.91 842 24.86 12.7 54.8 64 6 42.8 13.07 0.515
20:11 1013 29.91 842 24.86 12.7 54.8 63 5.9 42.6 13.08 0.515
20:12 1013 29.91 842 24.86 12.7 54.8 63 5.9 42.7 13.07 0.515
20:13 1013 29.91 842 24.86 12.7 54.9 62 5.7 42.3 13.09 0.515
20:14 1013 29.91 842 24.86 12.8 55 63 5.9 42.6 13.15 0.518
20:15 1013 29.91 842 24.86 12.8 55 63 5.9 42.7 13.15 0.518
20:16 1013 29.91 842 24.86 12.8 55 62 5.8 42.5 13.15 0.518
20:17 1013 29.91 842 24.86 12.7 54.9 63 6 42.8 13.1 0.516
20:18 1013 29.91 842 24.86 12.7 54.8 63 5.8 42.4 13.05 0.514
20:19 1013 29.91 842 24.86 12.7 54.8 63 5.8 42.5 13.09 0.515
20:20 1013 29.91 842 24.86 12.8 55 62 5.8 42.5 13.11 0.516
20:21 1013 29.91 842 24.86 12.7 54.9 63 5.9 42.6 13.1 0.516
20:22 1013 29.91 842 24.86 12.7 54.8 63 5.8 42.5 13.07 0.515
20:23 1013 29.91 842 24.86 12.7 54.8 62 5.7 42.2 13.06 0.514
20:24 1013 29.91 842 24.86 12.7 54.9 63 5.9 42.6 13.1 0.516
20:25 1013 29.91 842 24.86 12.7 54.8 63 5.8 42.5 13.01 0.512
20:26 1013 29.91 842 24.86 12.6 54.7 62 5.7 42.3 12.97 0.511
20:27 1013 29.91 842 24.86 12.6 54.7 63 5.7 42.3 13.02 0.513
20:28 1013 29.91 842 24.86 12.6 54.8 63 5.8 42.5 13.04 0.513
20:29 1013 29.91 842 24.86 12.6 54.7 62 5.7 42.3 12.98 0.511
20:30 1013 29.91 842 24.86 12.6 54.8 62 5.7 42.3 13.02 0.513
20:31 1013 29.91 842 24.86 12.6 54.7 63 5.8 42.4 12.98 0.511
20:32 1013 29.91 842 24.86 12.6 54.7 62 5.6 42.1 12.98 0.511
20:33 1013 29.91 842 24.86 12.6 54.6 63 5.7 42.3 12.94 0.509
20:34 1013 29.91 842 24.86 12.6 54.6 63 5.8 42.4 12.89 0.507
20:35 1013 29.91 842 24.86 12.6 54.6 63 5.7 42.3 12.92 0.509
20:36 1013 29.91 842 24.86 12.5 54.6 63 5.7 42.3 12.88 0.507
20:37 1013 29.91 842 24.86 12.6 54.6 63 5.7 42.3 12.93 0.509
20:38 1013 29.91 842 24.86 12.5 54.6 63 5.6 42.2 12.89 0.507
20:39 1013 29.91 842 24.86 12.6 54.7 63 5.8 42.4 12.92 0.509
20:40 1013 29.91 842 24.86 12.5 54.5 64 5.9 42.5 12.89 0.507
20:41 1013 29.91 842 24.86 12.5 54.5 64 5.9 42.7 12.8 0.504
20:42 1013 29.91 842 24.86 12.4 54.3 64 5.8 42.4 12.76 0.502
20:43 1013 29.91 842 24.86 12.4 54.3 64 5.8 42.4 12.78 0.503
20:44 1013 29.91 842 24.86 12.4 54.4 63 5.7 42.3 12.79 0.504
20:45 1013 29.91 842 24.86 12.5 54.4 64 5.8 42.4 12.87 0.507
20:46 1013 29.91 842 24.86 12.5 54.5 63 5.8 42.4 12.85 0.506
20:47 1013 29.91 842 24.86 12.5 54.5 64 5.9 42.6 12.84 0.506
20:48 1013 29.91 842 24.86 12.4 54.4 64 5.8 42.5 12.83 0.505
20:49 1013 29.91 842 24.86 12.4 54.3 64 5.9 42.6 12.76 0.502
20:50 1013 29.91 842 24.86 12.3 54.2 64 5.8 42.4 12.72 0.501
20:51 1013 29.91 842 24.86 12.4 54.2 65 6 42.8 12.75 0.502
20:52 1013 29.91 842 24.86 12.3 54.1 64 5.8 42.5 12.65 0.498
20:53 1013 29.91 842 24.86 12.3 54.1 65 5.9 42.6 12.67 0.499
20:54 1013 29.91 842 24.86 12.3 54.1 65 5.9 42.6 12.65 0.498
20:55 1013 29.91 842 24.86 12.2 54 65 5.9 42.6 12.6 0.496
20:56 1013 29.91 842 24.86 12.2 54 65 5.9 42.6 12.61 0.496
20:57 1013 29.91 842 24.86 12.3 54.1 65 5.9 42.6 12.63 0.497
20:58 1013 29.91 842 24.86 12.3 54.1 65 5.8 42.5 12.64 0.498
20:59 1013 29.91 842 24.86 12.2 54 65 5.9 42.7 12.62 0.497
21:00 1013 29.91 842 24.86 12.2 54 65 5.9 42.7 12.59 0.496
21:01 1013 29.91 842 24.86 12.2 53.9 66 6 42.7 12.52 0.493
21:02 1013 29.91 842 24.86 12.1 53.9 65 5.9 42.6 12.49 0.492
21:03 1013 29.91 842 24.86 12.1 53.8 66 5.9 42.7 12.5 0.492
21:04 1013 29.91 842 24.86 12.1 53.8 65 5.8 42.5 12.5 0.492
21:05 1013 29.91 842 24.86 12.1 53.8 66 5.9 42.7 12.47 0.491
21:06 1013 29.91 842 24.86 12.1 53.7 66 6 42.7 12.45 0.49
21:07 1013 29.91 842 24.86 12.1 53.7 66 5.9 42.6 12.43 0.489
21:08 1013 29.91 842 24.86 12.1 53.7 66 5.9 42.6 12.47 0.491
21:09 1013 29.91 842 24.86 12 53.6 66 5.9 42.7 12.37 0.487
21:10 1013 29.91 842 24.86 12 53.5 66 5.9 42.6 12.36 0.487
21:11 1013 29.91 842 24.86 11.9 53.4 67 5.9 42.7 12.33 0.485
21:12 1013 29.91 842 24.86 11.9 53.3 67 6 42.7 12.19 0.48
21:13 1013 29.91 842 24.86 11.8 53.2 67 5.8 42.5 12.16 0.479
21:14 1013 29.91 842 24.86 11.8 53.2 67 5.8 42.5 12.17 0.479
21:15 1013 29.91 842 24.86 11.8 53.2 67 5.9 42.6 12.19 0.48
21:16 1013 29.91 842 24.86 11.8 53.2 66 5.8 42.4 12.17 0.479
21:17 1013 29.91 842 24.86 11.9 53.3 66 5.8 42.5 12.24 0.482
21:18 1013 29.91 842 24.86 11.8 53.3 67 5.9 42.6 12.2 0.48
21:19 1013 29.91 842 24.86 11.8 53.2 67 5.8 42.4 12.17 0.479
21:20 1013 29.91 842 24.86 11.8 53.2 67 5.9 42.6 12.13 0.478
21:21 1013 29.91 842 24.86 11.7 53.1 67 5.8 42.4 12.12 0.477
21:22 1013 29.91 842 24.86 11.7 53 67 5.9 42.6 12.06 0.475
21:23 1013 29.91 842 24.86 11.6 52.9 67 5.8 42.5 11.99 0.472
21:24 1013 29.91 842 24.86 11.6 52.9 67 5.6 42.2 12.01 0.473
21:25 1013 29.91 842 24.86 11.7 53.1 66 5.7 42.2 12.11 0.477
21:26 1013 29.91 842 24.86 11.8 53.2 66 5.6 42.1 12.14 0.478
21:27 1013 29.91 842 24.86 11.8 53.3 66 5.7 42.3 12.19 0.48
21:28 1013 29.91 842 24.86 11.8 53.2 66 5.8 42.4 12.1 0.476
21:29 1013 29.91 842 24.86 11.7 53.1 66 5.7 42.2 12.07 0.475
21:30 1013 29.91 842 24.86 11.7 53 66 5.7 42.2 12.07 0.475
21:31 1013 29.91 842 24.86 11.7 53.1 67 5.7 42.3 12.09 0.476
21:32 1013 29.91 842 24.86 11.7 53 67 5.8 42.4 12.02 0.473
21:33 1013 29.91 842 24.86 11.6 52.8 67 5.7 42.3 11.96 0.471
21:34 1013 29.91 842 24.86 11.5 52.8 68 5.8 42.5 11.92 0.469
21:35 1013 29.91 842 24.86 11.5 52.7 68 5.8 42.4 11.84 0.466
21:36 1013 29.91 842 24.86 11.4 52.5 68 5.7 42.3 11.82 0.465
21:37 1013 29.91 842 24.86 11.4 52.5 68 5.8 42.4 11.79 0.464
21:38 1013 29.91 842 24.86 11.4 52.4 68 5.7 42.3 11.7 0.461
21:39 1013 29.91 842 24.86 11.4 52.5 68 5.7 42.2 11.72 0.461
21:40 1013 29.91 842 24.86 11.3 52.4 68 5.7 42.3 11.75 0.463
21:41 1013 29.91 842 24.86 11.3 52.4 68 5.6 42.1 11.72 0.461
21:42 1013 29.91 842 24.86 11.3 52.4 68 5.7 42.3 11.69 0.46
21:43 1013 29.91 842 24.86 11.2 52.2 69 5.7 42.3 11.63 0.458
21:44 1013 29.91 842 24.86 11.2 52.2 69 5.7 42.3 11.56 0.455
21:45 1013 29.91 842 24.86 11.2 52.2 68 5.6 42.1 11.61 0.457
21:46 1013 29.91 842 24.86 11.3 52.3 68 5.7 42.2 11.64 0.458
21:47 1013 29.91 842 24.86 11.2 52.2 69 5.7 42.3 11.6 0.457
21:48 1013 29.91 842 24.86 11.2 52.2 68 5.7 42.2 11.6 0.457
21:49 1013 29.91 842 24.86 11.2 52.1 69 5.7 42.2 11.55 0.455
21:50 1013 29.91 842 24.86 11.1 52 69 5.7 42.3 11.48 0.452
21:51 1013 29.91 842 24.86 11.1 51.9 69 5.6 42.1 11.41 0.449
21:52 1013 29.91 842 24.86 11.1 51.9 68 5.5 41.9 11.49 0.452
21:53 1013 29.91 842 24.86 11.1 52 68 5.5 41.9 11.51 0.453
21:54 1013 29.91 842 24.86 11.2 52.1 68 5.4 41.8 11.55 0.455
21:55 1013 29.91 842 24.86 11.2 52.2 68 5.5 42 11.58 0.456
21:56 1013 29.91 842 24.86 11.2 52.1 68 5.6 42 11.53 0.454
21:57 1013 29.91 842 24.86 11.1 52 68 5.5 41.8 11.52 0.454
21:58 1013 29.91 842 24.86 11.1 52 69 5.6 42.1 11.49 0.452
21:59 1013 29.91 842 24.86 11.1 52 68 5.4 41.8 11.46 0.451
22:00 1013 29.91 842 24.86 11.1 52 68 5.4 41.8 11.47 0.452
22:01 1013 29.91 842 24.86 11.1 51.9 68 5.4 41.7 11.47 0.452
22:02 1013 29.91 842 24.86 11.1 51.9 68 5.5 41.9 11.41 0.449
22:03 1013 29.91 842 24.86 11 51.8 68 5.4 41.8 11.38 0.448
22:04 1013 29.91 842 24.86 10.9 51.7 69 5.5 41.8 11.33 0.446
22:05 1013 29.91 842 24.86 11 51.7 68 5.3 41.6 11.33 0.446
22:06 1013 29.91 842 24.86 11 51.8 68 5.4 41.8 11.4 0.449
22:07 1013 29.91 842 24.86 11 51.8 69 5.5 42 11.36 0.447
22:08 1013 29.91 842 24.86 10.9 51.7 69 5.5 41.8 11.28 0.444
22:09 1013 29.91 842 24.86 10.9 51.5 69 5.5 41.9 11.24 0.443
22:10 1013 29.91 842 24.86 10.8 51.5 69 5.5 41.9 11.19 0.441
22:11 1013 29.91 842 24.86 10.8 51.4 69 5.5 41.9 11.18 0.44
22:12 1013 29.91 842 24.86 10.8 51.5 70 5.5 41.9 11.2 0.441
22:13 1013 29.91 842 24.86 10.8 51.5 70 5.6 42.1 11.22 0.442
22:14 1013 29.91 842 24.86 10.8 51.4 70 5.6 42.2 11.14 0.439
22:15 1013 29.91 842 24.86 10.7 51.3 71 5.7 42.2 11.01 0.433
22:16 1013 29.91 842 24.86 10.6 51.2 71 5.6 42 11.02 0.434
22:17 1013 29.91 842 24.86 10.6 51.1 71 5.6 42 11 0.433
22:18 1013 29.91 842 24.86 10.6 51.1 71 5.6 42.1 11.02 0.434
22:19 1013 29.91 842 24.86 10.6 51.1 71 5.7 42.2 10.98 0.432
22:20 1013 29.91 842 24.86 10.6 51 72 5.7 42.3 10.96 0.431
22:21 1013 29.91 842 24.86 10.5 51 72 5.7 42.3 10.89 0.429
22:22 1013 29.91 842 24.86 10.5 50.9 72 5.7 42.3 10.89 0.429
22:23 1013 29.91 842 24.86 10.6 51 72 5.8 42.4 10.89 0.429
22:24 1013 29.91 842 24.86 10.5 50.9 72 5.8 42.4 10.94 0.431
22:25 1013 29.91 842 24.86 10.5 50.9 73 5.8 42.5 10.91 0.43
22:26 1013 29.91 842 24.86 10.4 50.8 73 5.8 42.4 10.86 0.428
22:27 1013 29.91 842 24.86 10.5 50.9 73 5.8 42.5 10.85 0.427
22:28 1013 29.91 842 24.86 10.5 50.9 73 5.8 42.5 10.88 0.428
22:29 1013 29.91 842 24.86 10.5 50.8 73 5.9 42.6 10.86 0.428
22:30 1013 29.91 842 24.86 10.4 50.7 73 5.8 42.5 10.78 0.424
22:31 1013 29.91 842 24.86 10.4 50.7 74 5.9 42.6 10.72 0.422
22:32 1013 29.91 842 24.86 10.4 50.6 74 5.9 42.7 10.71 0.422
22:33 1013 29.91 842 24.86 10.3 50.6 74 5.9 42.6 10.71 0.422
22:34 1013 29.91 842 24.86 10.3 50.6 74 5.9 42.7 10.72 0.422
22:35 1013 29.91 842 24.86 10.3 50.5 74 6 42.7 10.67 0.42
22:36 1013 29.91 842 24.86 10.3 50.5 75 6 42.8 10.68 0.42
22:37 1013 29.91 842 24.86 10.2 50.4 75 6 42.8 10.6 0.417
22:38 1013 29.91 842 24.86 10.2 50.3 75 6 42.8 10.58 0.417
22:39 1013 29.91 842 24.86 10.2 50.3 75 6 42.8 10.53 0.415
22:40 1013 29.91 842 24.86 10.1 50.2 75 6 42.8 10.5 0.413
22:41 1013 29.91 842 24.86 10.1 50.2 76 6 42.8 10.53 0.415
22:42 1013 29.91 842 24.86 10.1 50.3 75 6 42.8 10.5 0.413
22:43 1013 29.91 842 24.86 10.1 50.2 76 6 42.8 10.54 0.415
22:44 1013 29.91 842 24.86 10.1 50.2 76 6.1 43 10.5 0.413
22:45 1013 29.91 842 24.86 10.1 50.1 76 6.1 43 10.45 0.411
22:46 1013 29.91 842 24.86 10 50.1 76 6.1 43 10.39 0.409
22:47 1013 29.91 842 24.86 10 50 76 6 42.8 10.38 0.409
22:48 1013 29.91 842 24.86 10 50 76 6 42.9 10.37 0.408
22:49 1013 29.91 842 24.86 10 50 76 6 42.8 10.4 0.409
22:50 1013 29.91 842 24.86 10 50 76 6 42.8 10.37 0.408
22:51 1013 29.91 842 24.86 10 50 77 6.1 42.9 10.37 0.408
22:52 1013 29.91 842 24.86 10 49.9 77 6.1 42.9 10.31 0.406
22:53 1013 29.91 842 24.86 9.9 49.8 77 6.1 43 10.27 0.404
22:54 1013 29.91 842 24.86 9.9 49.7 77 6.1 43 10.19 0.401
22:55 1013 29.91 842 24.86 9.8 49.7 77 6.1 42.9 10.2 0.402
22:56 1013 29.91 842 24.86 9.8 49.6 78 6.1 43 10.18 0.401
22:57 1013 29.91 842 24.86 9.7 49.5 78 6.2 43.1 10.09 0.397
22:58 1013 29.91 842 24.86 9.6 49.4 79 6.1 43 10.02 0.394
22:59 1013 29.91 842 24.86 9.6 49.3 79 6.1 43 9.99 0.393
23:00 1013 29.91 842 24.86 9.6 49.2 79 6.1 42.9 9.97 0.393
23:01 1013 29.91 842 24.86 9.5 49.2 79 6 42.9 9.94 0.391
23:02 1013 29.91 842 24.86 9.5 49.2 79 6.1 42.9 9.92 0.391
23:03 1013 29.91 842 24.86 9.5 49.1 79 6 42.9 9.9 0.39
23:04 1013 29.91 842 24.86 9.5 49.1 79 6.1 42.9 9.9 0.39
23:05 1013 29.91 842 24.86 9.5 49.1 79 6 42.8 9.88 0.389
23:06 1013 29.91 842 24.86 9.5 49.1 79 6.1 42.9 9.9 0.39
23:07 1013 29.91 842 24.86 9.5 49 79 6.1 42.9 9.85 0.388
23:08 1013 29.91 842 24.86 9.4 48.9 80 6.1 42.9 9.82 0.387
23:09 1013 29.91 842 24.86 9.3 48.8 80 6 42.8 9.76 0.384
23:10 1013 29.91 842 24.86 9.4 48.8 80 6 42.9 9.73 0.383
23:11 1013 29.91 842 24.86 9.3 48.8 80 6 42.9 9.7 0.382
23:12 1013 29.91 842 24.86 9.3 48.8 80 6.1 42.9 9.7 0.382
23:13 1013 29.91 842 24.86 9.3 48.7 80 6.1 42.9 9.65 0.38
23:14 1013 29.91 842 24.86 9.2 48.5 81 6.1 42.9 9.55 0.376
23:15 1013 29.91 842 24.86 9.1 48.4 81 6 42.8 9.58 0.377
23:16 1013 29.91 842 24.86 9.2 48.5 81 6 42.8 9.58 0.377
23:17 1013 29.91 842 24.86 9.2 48.5 81 6 42.9 9.56 0.376
23:18 1013 29.91 842 24.86 9.1 48.4 81 6 42.9 9.53 0.375
23:19 1013 29.91 842 24.86 9.1 48.4 81 6 42.8 9.49 0.374
23:20 1013 29.91 842 24.86 9.1 48.3 81 6 42.8 9.47 0.373
23:21 1013 29.91 842 24.86 9.1 48.3 81 6 42.9 9.47 0.373
23:22 1013 29.91 842 24.86 9 48.3 81 6 42.8 9.42 0.371
23:23 1013 29.91 842 24.86 9 48.2 81 6 42.8 9.42 0.371
23:24 1013 29.91 842 24.86 9 48.2 82 6.1 42.9 9.37 0.369
23:25 1013 29.91 842 24.86 8.9 48.1 82 6 42.9 9.33 0.367
23:26 1013 29.91 842 24.86 8.9 48 82 6 42.8 9.33 0.367
23:27 1013 29.91 842 24.86 8.9 48.1 82 6 42.9 9.33 0.367
23:28 1013 29.91 842 24.86 8.9 48 82 6.1 42.9 9.29 0.366
23:29 1013 29.91 842 24.86 8.8 47.9 82 6 42.8 9.25 0.364
23:30 1013 29.91 842 24.86 8.9 47.9 82 6 42.8 9.25 0.364
23:31 1013 29.91 842 24.86 8.8 47.9 82 6 42.8 9.24 0.364
23:32 1013 29.91 842 24.86 8.8 47.9 83 6.1 42.9 9.18 0.361
23:33 1013 29.91 842 24.86 8.8 47.8 83 6 42.8 9.17 0.361
23:34 1013 29.91 842 24.86 8.8 47.8 83 6.1 42.9 9.17 0.361
23:35 1013 29.91 842 24.86 8.8 47.8 83 6.1 42.9 9.14 0.36
23:36 1013 29.91 842 24.86 8.8 47.8 83 6.1 42.9 9.14 0.36
23:37 1013 29.91 842 24.86 8.7 47.7 83 6 42.9 9.11 0.359
23:38 1013 29.91 842 24.86 8.7 47.6 83 6 42.8 9.09 0.358
23:39 1013 29.91 842 24.86 8.6 47.5 84 6 42.8 9.06 0.357
23:40 1013 29.91 842 24.86 8.6 47.5 84 6 42.8 9.04 0.356
23:41 1013 29.91 842 24.86 8.6 47.5 84 6 42.9 9.01 0.355
23:42 1013 29.91 842 24.86 8.6 47.6 84 6 42.9 9.02 0.355
23:43 1013 29.91 842 24.86 8.6 47.5 84 6.1 43 8.98 0.354
23:44 1013 29.91 842 24.86 8.6 47.5 84 6 42.9 8.99 0.354
23:45 1013 29.91 842 24.86 8.6 47.5 84 6 42.8 9.04 0.356
23:46 1013 29.91 842 24.86 8.6 47.5 84 6.1 42.9 8.97 0.353
23:47 1013 29.91 842 24.86 8.6 47.6 84 6.1 43 8.99 0.354
23:48 1013 29.91 842 24.86 8.6 47.4 84 6.1 42.9 8.95 0.352
23:49 1013 29.91 842 24.86 8.6 47.4 84 6.1 42.9 8.91 0.351
23:50 1013 29.91 842 24.86 8.5 47.3 85 6.1 42.9 8.91 0.351
23:51 1013 29.91 842 24.86 8.5 47.2 85 6 42.9 8.87 0.349
23:52 1013 29.91 842 24.86 8.5 47.2 85 6.1 42.9 8.84 0.348
23:53 1013 29.91 842 24.86 8.4 47.2 85 6.1 42.9 8.8 0.346
23:54 1013 29.91 842 24.86 8.4 47.1 85 6 42.8 8.79 0.346
23:55 1013 29.91 842 24.86 8.4 47.1 85 6 42.9 8.76 0.345
23:56 1013 29.91 842 24.86 8.4 47 85 6 42.9 8.74 0.344
23:57 1013 29.91 842 24.86 8.3 47 85 6 42.8 8.68 0.342
23:58 1013 29.91 842 24.86 8.4 47 85 6 42.9 8.71 0.343
23:59 1013 29.91 842 24.86 8.3 47 85 6 42.8 8.68 0.342
24:00 1013 29.91 842 24.86 8.3 47 85 6 42.8 8.67 0.341